DAL312 KMSP-PHNL
Flight info
| Callsign | DAL312 |
|---|---|
| Flight time | 8h 13m |
| Altitude | 38000 |
| Route | SMERF7 SMERF MMUDY VLBRG FERXY BIL DLN LKT DNJ IMB DSD/N0477F400 MOXEE EUG HEMLO A332 AUNTI R463 APACK INOYI1 |
| Aircraft | A359/H-SDE2E3GHIJ3J4J5LM1ORWXY/LB1D1 |
Departure
| Time | 2026-05-07 15:26 |
|---|---|
| Airport | Minneapolis–Saint Paul International Airport / Wold–Chamberlain Field (KMSP) |
Arrival
| Time | 2026-05-07 23:39 |
|---|---|
| Airport | Daniel K. Inouye International Airport (PHNL) |
| Time | Latitude | Longitude | Altitude | Speed | Heading |
|---|---|---|---|---|---|
| 2026-05-07 14:45 | 44.88312 | -93.21573 | 831 ft | 0 kts | 19° |
| 2026-05-07 15:15 | 44.88320 | -93.21569 | 830 ft | 1 kts | 19° |
| 2026-05-07 15:15 | 44.88327 | -93.21566 | 830 ft | 1 kts | 19° |
| 2026-05-07 15:15 | 44.88334 | -93.21563 | 834 ft | 1 kts | 19° |
| 2026-05-07 15:15 | 44.88335 | -93.21562 | 835 ft | 1 kts | 19° |
| 2026-05-07 15:16 | 44.88317 | -93.21570 | 842 ft | 4 kts | 18° |
| 2026-05-07 15:16 | 44.88291 | -93.21583 | 832 ft | 4 kts | 23° |
| 2026-05-07 15:16 | 44.88266 | -93.21597 | 834 ft | 4 kts | 14° |
| 2026-05-07 15:16 | 44.88240 | -93.21604 | 838 ft | 4 kts | 1° |
| 2026-05-07 15:17 | 44.88214 | -93.21600 | 830 ft | 4 kts | 332° |
| 2026-05-07 15:17 | 44.88203 | -93.21588 | 829 ft | 2 kts | 301° |
| 2026-05-07 15:17 | 44.88222 | -93.21644 | 829 ft | 7 kts | 301° |
| 2026-05-07 15:17 | 44.88223 | -93.21647 | 830 ft | 0 kts | 301° |
| 2026-05-07 15:20 | 44.88231 | -93.21663 | 830 ft | 5 kts | 304° |
| 2026-05-07 15:20 | 44.88263 | -93.21730 | 837 ft | 11 kts | 302° |
| 2026-05-07 15:21 | 44.88304 | -93.21823 | 834 ft | 11 kts | 301° |
| 2026-05-07 15:21 | 44.88317 | -93.21920 | 835 ft | 11 kts | 244° |
| 2026-05-07 15:21 | 44.88252 | -93.21989 | 831 ft | 13 kts | 215° |
| 2026-05-07 15:21 | 44.88176 | -93.22061 | 834 ft | 12 kts | 214° |
| 2026-05-07 15:22 | 44.88117 | -93.22124 | 834 ft | 10 kts | 188° |
| 2026-05-07 15:22 | 44.88073 | -93.22075 | 837 ft | 11 kts | 122° |
| 2026-05-07 15:22 | 44.88015 | -93.21940 | 830 ft | 21 kts | 121° |
| 2026-05-07 15:22 | 44.87933 | -93.21748 | 828 ft | 24 kts | 121° |
| 2026-05-07 15:23 | 44.87842 | -93.21542 | 831 ft | 25 kts | 121° |
| 2026-05-07 15:23 | 44.87753 | -93.21332 | 826 ft | 25 kts | 120° |
| 2026-05-07 15:23 | 44.87663 | -93.21124 | 834 ft | 25 kts | 122° |
| 2026-05-07 15:23 | 44.87568 | -93.20912 | 828 ft | 26 kts | 122° |
| 2026-05-07 15:24 | 44.87462 | -93.20702 | 828 ft | 27 kts | 145° |
| 2026-05-07 15:24 | 44.87332 | -93.20516 | 825 ft | 27 kts | 121° |
| 2026-05-07 15:24 | 44.87245 | -93.20309 | 828 ft | 19 kts | 110° |
| 2026-05-07 15:24 | 44.87282 | -93.20202 | 827 ft | 10 kts | 30° |
| 2026-05-07 15:25 | 44.87346 | -93.20182 | 829 ft | 9 kts | 348° |
| 2026-05-07 15:25 | 44.87400 | -93.20240 | 825 ft | 11 kts | 309° |
| 2026-05-07 15:25 | 44.87478 | -93.20416 | 827 ft | 48 kts | 302° |
| 2026-05-07 15:25 | 44.87761 | -93.21067 | 833 ft | 106 kts | 302° |
| 2026-05-07 15:26 | 44.88243 | -93.22175 | 833 ft | 156 kts | 302° |
| 2026-05-07 15:26 | 44.88841 | -93.23566 | 1355 ft | 160 kts | 301° |
| 2026-05-07 15:26 | 44.89387 | -93.24896 | 2110 ft | 157 kts | 300° |
| 2026-05-07 15:26 | 44.89960 | -93.26302 | 2400 ft | 176 kts | 300° |
| 2026-05-07 15:27 | 44.90603 | -93.27867 | 2604 ft | 198 kts | 300° |
| 2026-05-07 15:27 | 44.91344 | -93.29653 | 2799 ft | 224 kts | 301° |
| 2026-05-07 15:27 | 44.92172 | -93.31634 | 3133 ft | 242 kts | 301° |
| 2026-05-07 15:27 | 44.93035 | -93.33721 | 3702 ft | 249 kts | 300° |
| 2026-05-07 15:28 | 44.93779 | -93.35939 | 4423 ft | 251 kts | 294° |
| 2026-05-07 15:28 | 44.94479 | -93.38205 | 5198 ft | 252 kts | 293° |
| 2026-05-07 15:28 | 44.95164 | -93.40479 | 6030 ft | 251 kts | 292° |
| 2026-05-07 15:28 | 44.95838 | -93.42750 | 6878 ft | 250 kts | 292° |
| 2026-05-07 15:29 | 44.96506 | -93.45021 | 7650 ft | 252 kts | 293° |
| 2026-05-07 15:29 | 44.97177 | -93.47315 | 8435 ft | 254 kts | 293° |
| 2026-05-07 15:29 | 44.97852 | -93.49627 | 9242 ft | 256 kts | 293° |
| 2026-05-07 15:29 | 44.98530 | -93.51958 | 10036 ft | 257 kts | 294° |
| 2026-05-07 15:30 | 44.99227 | -93.54352 | 10493 ft | 272 kts | 294° |
| 2026-05-07 15:30 | 44.99972 | -93.56913 | 10772 ft | 292 kts | 294° |
| 2026-05-07 15:30 | 45.00768 | -93.59651 | 11055 ft | 310 kts | 294° |
| 2026-05-07 15:30 | 45.01610 | -93.62556 | 11336 ft | 328 kts | 294° |
| 2026-05-07 15:31 | 45.02492 | -93.65607 | 11723 ft | 340 kts | 294° |
| 2026-05-07 15:31 | 45.03394 | -93.68731 | 12347 ft | 345 kts | 294° |
| 2026-05-07 15:31 | 45.04305 | -93.71893 | 13040 ft | 349 kts | 294° |
| 2026-05-07 15:31 | 45.05226 | -93.75094 | 13707 ft | 353 kts | 294° |
| 2026-05-07 15:32 | 45.06145 | -93.78290 | 14302 ft | 357 kts | 294° |
| 2026-05-07 15:32 | 45.07083 | -93.81555 | 14901 ft | 360 kts | 294° |
| 2026-05-07 15:32 | 45.08030 | -93.84853 | 15480 ft | 364 kts | 294° |
| 2026-05-07 15:32 | 45.08985 | -93.88185 | 16119 ft | 367 kts | 294° |
| 2026-05-07 15:33 | 45.09874 | -93.91590 | 16766 ft | 371 kts | 291° |
| 2026-05-07 15:33 | 45.10703 | -93.95072 | 17416 ft | 374 kts | 290° |
| 2026-05-07 15:33 | 45.11536 | -93.98578 | 18088 ft | 378 kts | 290° |
| 2026-05-07 15:33 | 45.12386 | -94.02121 | 18704 ft | 381 kts | 290° |
| 2026-05-07 15:34 | 45.13245 | -94.05682 | 19305 ft | 383 kts | 290° |
| 2026-05-07 15:34 | 45.14114 | -94.09274 | 19881 ft | 386 kts | 290° |
| 2026-05-07 15:34 | 45.14978 | -94.12838 | 20443 ft | 389 kts | 290° |
| 2026-05-07 15:34 | 45.15859 | -94.16477 | 21023 ft | 392 kts | 290° |
| 2026-05-07 15:35 | 45.16745 | -94.20141 | 21593 ft | 395 kts | 290° |
| 2026-05-07 15:35 | 45.17636 | -94.23834 | 22154 ft | 397 kts | 290° |
| 2026-05-07 15:35 | 45.18530 | -94.27541 | 22808 ft | 398 kts | 290° |
| 2026-05-07 15:35 | 45.19427 | -94.31270 | 23364 ft | 401 kts | 290° |
| 2026-05-07 15:36 | 45.20329 | -94.35026 | 23840 ft | 404 kts | 290° |
| 2026-05-07 15:36 | 45.21238 | -94.38814 | 24324 ft | 406 kts | 291° |
| 2026-05-07 15:36 | 45.22150 | -94.42618 | 24811 ft | 408 kts | 291° |
| 2026-05-07 15:36 | 45.23063 | -94.46436 | 25292 ft | 410 kts | 291° |
| 2026-05-07 15:37 | 45.23978 | -94.50271 | 25777 ft | 412 kts | 291° |
| 2026-05-07 15:37 | 45.24896 | -94.54127 | 26261 ft | 413 kts | 291° |
| 2026-05-07 15:37 | 45.25818 | -94.58003 | 26730 ft | 415 kts | 291° |
| 2026-05-07 15:37 | 45.26743 | -94.61898 | 27206 ft | 418 kts | 291° |
| 2026-05-07 15:38 | 45.27669 | -94.65807 | 27678 ft | 418 kts | 292° |
| 2026-05-07 15:38 | 45.28594 | -94.69721 | 28217 ft | 418 kts | 292° |
| 2026-05-07 15:38 | 45.29524 | -94.73655 | 28578 ft | 423 kts | 292° |
| 2026-05-07 15:38 | 45.30462 | -94.77631 | 28933 ft | 426 kts | 292° |
| 2026-05-07 15:39 | 45.31404 | -94.81638 | 29340 ft | 428 kts | 292° |
| 2026-05-07 15:39 | 45.32348 | -94.85656 | 29735 ft | 430 kts | 292° |
| 2026-05-07 15:39 | 45.33295 | -94.89697 | 30109 ft | 432 kts | 292° |
| 2026-05-07 15:39 | 45.34246 | -94.93761 | 30377 ft | 435 kts | 292° |
| 2026-05-07 15:40 | 45.35202 | -94.97856 | 30626 ft | 438 kts | 292° |
| 2026-05-07 15:40 | 45.36150 | -95.01923 | 30912 ft | 439 kts | 291° |
| 2026-05-07 15:40 | 45.37106 | -95.06037 | 31295 ft | 437 kts | 292° |
| 2026-05-07 15:40 | 45.38055 | -95.10128 | 31725 ft | 435 kts | 292° |
| 2026-05-07 15:41 | 45.39004 | -95.14222 | 32020 ft | 436 kts | 291° |
| 2026-05-07 15:41 | 45.39952 | -95.18317 | 32325 ft | 437 kts | 291° |
| 2026-05-07 15:41 | 45.40901 | -95.22426 | 32619 ft | 437 kts | 291° |
| 2026-05-07 15:41 | 45.41850 | -95.26545 | 32916 ft | 437 kts | 291° |
| 2026-05-07 15:42 | 45.42796 | -95.30657 | 33236 ft | 437 kts | 291° |
| 2026-05-07 15:42 | 45.43743 | -95.34779 | 33532 ft | 438 kts | 291° |
| 2026-05-07 15:42 | 45.44687 | -95.38898 | 33837 ft | 438 kts | 291° |
| 2026-05-07 15:42 | 45.45631 | -95.43024 | 34062 ft | 439 kts | 291° |
| 2026-05-07 15:43 | 45.46577 | -95.47169 | 34253 ft | 439 kts | 291° |
| 2026-05-07 15:43 | 45.47520 | -95.51310 | 34549 ft | 438 kts | 291° |
| 2026-05-07 15:43 | 45.48459 | -95.55437 | 34774 ft | 438 kts | 291° |
| 2026-05-07 15:43 | 45.49399 | -95.59576 | 34981 ft | 439 kts | 291° |
| 2026-05-07 15:44 | 45.50338 | -95.63720 | 35198 ft | 439 kts | 291° |
| 2026-05-07 15:44 | 45.51275 | -95.67865 | 35401 ft | 440 kts | 291° |
| 2026-05-07 15:44 | 45.52211 | -95.72015 | 35586 ft | 440 kts | 291° |
| 2026-05-07 15:44 | 45.53135 | -95.76115 | 35777 ft | 440 kts | 290° |
| 2026-05-07 15:45 | 45.54069 | -95.80271 | 35952 ft | 440 kts | 290° |
| 2026-05-07 15:45 | 45.55005 | -95.84442 | 36138 ft | 441 kts | 290° |
| 2026-05-07 15:45 | 45.55937 | -95.88604 | 36330 ft | 440 kts | 290° |
| 2026-05-07 15:45 | 45.56865 | -95.92759 | 36552 ft | 439 kts | 290° |
| 2026-05-07 15:46 | 45.58720 | -96.01079 | 36866 ft | 440 kts | 290° |
| 2026-05-07 15:46 | 45.59645 | -96.05244 | 37020 ft | 440 kts | 290° |
| 2026-05-07 15:46 | 45.60570 | -96.09415 | 37177 ft | 441 kts | 290° |
| 2026-05-07 15:47 | 45.61497 | -96.13603 | 37332 ft | 442 kts | 290° |
| 2026-05-07 15:47 | 45.63352 | -96.22007 | 37558 ft | 444 kts | 290° |
| 2026-05-07 15:47 | 45.64278 | -96.26216 | 37717 ft | 444 kts | 290° |
| 2026-05-07 15:48 | 45.65200 | -96.30419 | 37886 ft | 443 kts | 290° |
| 2026-05-07 15:48 | 45.67035 | -96.38801 | 37977 ft | 447 kts | 290° |
| 2026-05-07 15:49 | 45.68888 | -96.47300 | 37976 ft | 448 kts | 289° |
| 2026-05-07 15:49 | 45.70734 | -96.55803 | 37981 ft | 447 kts | 289° |
| 2026-05-07 15:50 | 45.72573 | -96.64306 | 37974 ft | 447 kts | 289° |
| 2026-05-07 15:50 | 45.74404 | -96.72811 | 37968 ft | 447 kts | 289° |
| 2026-05-07 15:51 | 45.76228 | -96.81312 | 37969 ft | 446 kts | 289° |
| 2026-05-07 15:51 | 45.78042 | -96.89806 | 37972 ft | 447 kts | 290° |
| 2026-05-07 15:52 | 45.79855 | -96.98325 | 37966 ft | 447 kts | 289° |
| 2026-05-07 15:52 | 45.81661 | -97.06854 | 37965 ft | 447 kts | 289° |
| 2026-05-07 15:53 | 45.83460 | -97.15383 | 37971 ft | 447 kts | 289° |
| 2026-05-07 15:53 | 45.85251 | -97.23905 | 37970 ft | 446 kts | 289° |
| 2026-05-07 15:54 | 45.87024 | -97.32382 | 37968 ft | 446 kts | 289° |
| 2026-05-07 15:54 | 45.88801 | -97.40910 | 37964 ft | 446 kts | 289° |
| 2026-05-07 15:55 | 45.90571 | -97.49440 | 37962 ft | 446 kts | 289° |
| 2026-05-07 15:55 | 45.91987 | -97.58137 | 37975 ft | 451 kts | 279° |
| 2026-05-07 15:56 | 45.92233 | -97.67190 | 37954 ft | 456 kts | 275° |
| 2026-05-07 15:56 | 45.92227 | -97.76303 | 37953 ft | 457 kts | 274° |
| 2026-05-07 15:57 | 45.92201 | -97.83887 | 37953 ft | 457 kts | 274° |
| 2026-05-07 15:57 | 45.92191 | -97.93009 | 37948 ft | 456 kts | 274° |
| 2026-05-07 15:58 | 45.92191 | -98.02133 | 37959 ft | 457 kts | 274° |
| 2026-05-07 15:58 | 45.92189 | -98.11258 | 37968 ft | 457 kts | 274° |
| 2026-05-07 15:59 | 45.92178 | -98.20396 | 37966 ft | 457 kts | 274° |
| 2026-05-07 15:59 | 45.92160 | -98.29527 | 37967 ft | 457 kts | 274° |
| 2026-05-07 16:00 | 45.92134 | -98.38655 | 37963 ft | 457 kts | 274° |
| 2026-05-07 16:00 | 45.92100 | -98.47773 | 37964 ft | 456 kts | 274° |
| 2026-05-07 16:01 | 45.92060 | -98.56824 | 37958 ft | 456 kts | 274° |
| 2026-05-07 16:01 | 45.92012 | -98.65939 | 37955 ft | 457 kts | 274° |
| 2026-05-07 16:02 | 45.91957 | -98.75051 | 37947 ft | 456 kts | 274° |
| 2026-05-07 16:02 | 45.91894 | -98.84138 | 37947 ft | 454 kts | 274° |
| 2026-05-07 16:03 | 45.91826 | -98.93213 | 37935 ft | 454 kts | 274° |
| 2026-05-07 16:03 | 45.91749 | -99.02298 | 37938 ft | 454 kts | 274° |
| 2026-05-07 16:04 | 45.91666 | -99.11370 | 37888 ft | 454 kts | 273° |
| 2026-05-07 16:04 | 45.91576 | -99.20373 | 37936 ft | 453 kts | 273° |
| 2026-05-07 16:05 | 45.91479 | -99.29399 | 37933 ft | 452 kts | 273° |
| 2026-05-07 16:05 | 45.91375 | -99.38428 | 37930 ft | 452 kts | 273° |
| 2026-05-07 16:06 | 45.91263 | -99.47455 | 37933 ft | 452 kts | 273° |
| 2026-05-07 16:06 | 45.91145 | -99.56483 | 37930 ft | 452 kts | 273° |
| 2026-05-07 16:07 | 45.91018 | -99.65499 | 37930 ft | 451 kts | 273° |
| 2026-05-07 16:07 | 45.90885 | -99.74512 | 37932 ft | 452 kts | 273° |
| 2026-05-07 16:08 | 45.90745 | -99.83524 | 37935 ft | 451 kts | 273° |
| 2026-05-07 16:08 | 45.90598 | -99.92535 | 37915 ft | 451 kts | 273° |
| 2026-05-07 16:09 | 45.90445 | -100.01545 | 37937 ft | 450 kts | 272° |
| 2026-05-07 16:09 | 45.90285 | -100.10536 | 37936 ft | 450 kts | 272° |
| 2026-05-07 16:10 | 45.90118 | -100.19472 | 37939 ft | 451 kts | 272° |
| 2026-05-07 16:10 | 45.89943 | -100.28464 | 37939 ft | 451 kts | 272° |
| 2026-05-07 16:11 | 45.89761 | -100.37454 | 37950 ft | 450 kts | 272° |
| 2026-05-07 16:11 | 45.89573 | -100.46442 | 37944 ft | 450 kts | 272° |
| 2026-05-07 16:12 | 45.89377 | -100.55429 | 37944 ft | 451 kts | 272° |
| 2026-05-07 16:12 | 45.89174 | -100.64420 | 37945 ft | 451 kts | 272° |
| 2026-05-07 16:13 | 45.88964 | -100.73409 | 37932 ft | 451 kts | 272° |
| 2026-05-07 16:13 | 45.88747 | -100.82387 | 37946 ft | 449 kts | 272° |
| 2026-05-07 16:14 | 45.88523 | -100.91350 | 37949 ft | 449 kts | 272° |
| 2026-05-07 16:14 | 45.88293 | -101.00312 | 37955 ft | 449 kts | 272° |
| 2026-05-07 16:15 | 45.88056 | -101.09275 | 37952 ft | 449 kts | 272° |
| 2026-05-07 16:15 | 45.87813 | -101.18186 | 37953 ft | 450 kts | 272° |
| 2026-05-07 16:16 | 45.87561 | -101.27156 | 37963 ft | 450 kts | 272° |
| 2026-05-07 16:16 | 45.87302 | -101.36135 | 37962 ft | 450 kts | 272° |
| 2026-05-07 16:17 | 45.87036 | -101.45113 | 37953 ft | 450 kts | 272° |
| 2026-05-07 16:17 | 45.86763 | -101.54096 | 37959 ft | 450 kts | 271° |
| 2026-05-07 16:18 | 45.86482 | -101.63076 | 37965 ft | 450 kts | 271° |
| 2026-05-07 16:18 | 45.86195 | -101.72049 | 37967 ft | 450 kts | 271° |
| 2026-05-07 16:19 | 45.85901 | -101.81031 | 37953 ft | 450 kts | 271° |
| 2026-05-07 16:19 | 45.85600 | -101.90007 | 37940 ft | 450 kts | 271° |
| 2026-05-07 16:20 | 45.85354 | -101.98984 | 37958 ft | 449 kts | 275° |
| 2026-05-07 16:20 | 45.85576 | -102.07865 | 37959 ft | 448 kts | 276° |
| 2026-05-07 16:21 | 45.85886 | -102.16791 | 37957 ft | 448 kts | 277° |
| 2026-05-07 16:21 | 45.86206 | -102.25713 | 37952 ft | 448 kts | 277° |
| 2026-05-07 16:22 | 45.86514 | -102.34640 | 37944 ft | 449 kts | 276° |
| 2026-05-07 16:22 | 45.86810 | -102.43597 | 37944 ft | 450 kts | 276° |
| 2026-05-07 16:23 | 45.87097 | -102.52565 | 37948 ft | 450 kts | 276° |
| 2026-05-07 16:23 | 45.87377 | -102.61533 | 37950 ft | 450 kts | 276° |
| 2026-05-07 16:24 | 45.87651 | -102.70509 | 37944 ft | 450 kts | 276° |
| 2026-05-07 16:24 | 45.87920 | -102.79507 | 37944 ft | 452 kts | 275° |
| 2026-05-07 16:25 | 45.88181 | -102.88521 | 37940 ft | 452 kts | 275° |
| 2026-05-07 16:25 | 45.88435 | -102.97547 | 37944 ft | 452 kts | 275° |
| 2026-05-07 16:26 | 45.88682 | -103.06581 | 37938 ft | 452 kts | 275° |
| 2026-05-07 16:26 | 45.88922 | -103.15613 | 37935 ft | 453 kts | 275° |
| 2026-05-07 16:27 | 45.89156 | -103.24663 | 37937 ft | 454 kts | 275° |
| 2026-05-07 16:27 | 45.89383 | -103.33725 | 37937 ft | 454 kts | 275° |
| 2026-05-07 16:28 | 45.89601 | -103.42730 | 37933 ft | 454 kts | 275° |
| 2026-05-07 16:28 | 45.89813 | -103.51792 | 37932 ft | 454 kts | 275° |
| 2026-05-07 16:29 | 45.90019 | -103.60870 | 37927 ft | 456 kts | 274° |
| 2026-05-07 16:29 | 45.90218 | -103.69967 | 37929 ft | 456 kts | 274° |
| 2026-05-07 16:30 | 45.90410 | -103.79079 | 37929 ft | 456 kts | 274° |
| 2026-05-07 16:30 | 45.90594 | -103.88190 | 37925 ft | 456 kts | 274° |
| 2026-05-07 16:31 | 45.90771 | -103.97300 | 37920 ft | 457 kts | 274° |
| 2026-05-07 16:31 | 45.90942 | -104.06433 | 37920 ft | 458 kts | 274° |
| 2026-05-07 16:32 | 45.91105 | -104.15573 | 37922 ft | 458 kts | 274° |
| 2026-05-07 16:32 | 45.91261 | -104.24724 | 37919 ft | 458 kts | 274° |
| 2026-05-07 16:33 | 45.91409 | -104.33864 | 37917 ft | 458 kts | 274° |
| 2026-05-07 16:33 | 45.91550 | -104.42950 | 37920 ft | 459 kts | 274° |
| 2026-05-07 16:34 | 45.91686 | -104.52114 | 37917 ft | 459 kts | 274° |
| 2026-05-07 16:34 | 45.91814 | -104.61279 | 37917 ft | 459 kts | 274° |
| 2026-05-07 16:35 | 45.91933 | -104.70449 | 37917 ft | 459 kts | 274° |
| 2026-05-07 16:35 | 45.92044 | -104.79616 | 37912 ft | 459 kts | 274° |
| 2026-05-07 16:36 | 45.92149 | -104.88784 | 37917 ft | 459 kts | 274° |
| 2026-05-07 16:36 | 45.92247 | -104.97946 | 37918 ft | 459 kts | 274° |
| 2026-05-07 16:37 | 45.92338 | -105.07116 | 37919 ft | 459 kts | 274° |
| 2026-05-07 16:37 | 45.92421 | -105.16282 | 37920 ft | 459 kts | 274° |
| 2026-05-07 16:38 | 45.92497 | -105.25449 | 37915 ft | 458 kts | 274° |
| 2026-05-07 16:38 | 45.92564 | -105.34525 | 37916 ft | 457 kts | 274° |
| 2026-05-07 16:39 | 45.92626 | -105.43665 | 37912 ft | 458 kts | 274° |
| 2026-05-07 16:39 | 45.92680 | -105.52832 | 37909 ft | 459 kts | 274° |
| 2026-05-07 16:40 | 45.92727 | -105.62004 | 37910 ft | 459 kts | 273° |
| 2026-05-07 16:40 | 45.92766 | -105.71175 | 37911 ft | 459 kts | 273° |
| 2026-05-07 16:41 | 45.92797 | -105.80350 | 37913 ft | 459 kts | 273° |
| 2026-05-07 16:41 | 45.92822 | -105.89523 | 37913 ft | 459 kts | 273° |
| 2026-05-07 16:42 | 45.92840 | -105.98694 | 37896 ft | 459 kts | 273° |
| 2026-05-07 16:42 | 45.92848 | -106.07850 | 37920 ft | 458 kts | 274° |
| 2026-05-07 16:43 | 45.92851 | -106.16991 | 37912 ft | 457 kts | 274° |
| 2026-05-07 16:43 | 45.92847 | -106.26122 | 37914 ft | 457 kts | 274° |
| 2026-05-07 16:44 | 45.92835 | -106.35261 | 37917 ft | 457 kts | 274° |
| 2026-05-07 16:44 | 45.92816 | -106.44338 | 37915 ft | 457 kts | 274° |
| 2026-05-07 16:45 | 45.92866 | -106.53452 | 37914 ft | 455 kts | 276° |
| 2026-05-07 16:45 | 45.93107 | -106.62529 | 37923 ft | 455 kts | 276° |
| 2026-05-07 16:46 | 45.93353 | -106.71609 | 37937 ft | 455 kts | 276° |
| 2026-05-07 16:46 | 45.93530 | -106.79165 | 37932 ft | 455 kts | 276° |
| 2026-05-07 16:47 | 45.93717 | -106.88252 | 37930 ft | 454 kts | 276° |
| 2026-05-07 16:47 | 45.93892 | -106.97323 | 37922 ft | 454 kts | 276° |
| 2026-05-07 16:48 | 45.94061 | -107.06383 | 37935 ft | 454 kts | 276° |
| 2026-05-07 16:48 | 45.94225 | -107.15444 | 37939 ft | 454 kts | 276° |
| 2026-05-07 16:49 | 45.94282 | -107.24522 | 37918 ft | 457 kts | 271° |
| 2026-05-07 16:49 | 45.93605 | -107.33613 | 37932 ft | 457 kts | 268° |
| 2026-05-07 16:50 | 45.92767 | -107.42663 | 37935 ft | 457 kts | 267° |
| 2026-05-07 16:50 | 45.91895 | -107.51720 | 37937 ft | 457 kts | 267° |
| 2026-05-07 16:51 | 45.91026 | -107.60760 | 37932 ft | 457 kts | 267° |
| 2026-05-07 16:51 | 45.90159 | -107.69790 | 37936 ft | 455 kts | 268° |
| 2026-05-07 16:52 | 45.89296 | -107.78725 | 37938 ft | 454 kts | 268° |
| 2026-05-07 16:52 | 45.88423 | -107.87704 | 37935 ft | 454 kts | 268° |
| 2026-05-07 16:53 | 45.87543 | -107.96675 | 37927 ft | 454 kts | 268° |
| 2026-05-07 16:53 | 45.86655 | -108.05635 | 37925 ft | 453 kts | 268° |
| 2026-05-07 16:54 | 45.85763 | -108.14567 | 37940 ft | 452 kts | 268° |
| 2026-05-07 16:54 | 45.84865 | -108.23482 | 37954 ft | 451 kts | 268° |
| 2026-05-07 16:55 | 45.83962 | -108.32392 | 37980 ft | 451 kts | 268° |
| 2026-05-07 16:55 | 45.83051 | -108.41295 | 37954 ft | 451 kts | 268° |
| 2026-05-07 16:56 | 45.82134 | -108.50191 | 37977 ft | 451 kts | 268° |
| 2026-05-07 16:56 | 45.80747 | -108.63519 | 37979 ft | 450 kts | 268° |
| 2026-05-07 16:57 | 45.79693 | -108.72400 | 37975 ft | 452 kts | 266° |
| 2026-05-07 16:57 | 45.78536 | -108.81268 | 37916 ft | 452 kts | 266° |
| 2026-05-07 16:58 | 45.77387 | -108.90118 | 37945 ft | 451 kts | 266° |
| 2026-05-07 16:58 | 45.76261 | -108.98906 | 37945 ft | 451 kts | 266° |
| 2026-05-07 16:59 | 45.75130 | -109.07745 | 37955 ft | 451 kts | 266° |
| 2026-05-07 16:59 | 45.73993 | -109.16577 | 37955 ft | 451 kts | 266° |
| 2026-05-07 17:00 | 45.72848 | -109.25400 | 37957 ft | 450 kts | 266° |
| 2026-05-07 17:00 | 45.71698 | -109.34191 | 37959 ft | 449 kts | 266° |
| 2026-05-07 17:01 | 45.70544 | -109.42977 | 37954 ft | 449 kts | 266° |
| 2026-05-07 17:01 | 45.69383 | -109.51758 | 37947 ft | 449 kts | 266° |
| 2026-05-07 17:02 | 45.68224 | -109.60463 | 37942 ft | 448 kts | 266° |
| 2026-05-07 17:02 | 45.67053 | -109.69215 | 37929 ft | 448 kts | 266° |
| 2026-05-07 17:03 | 45.65875 | -109.77964 | 37929 ft | 448 kts | 266° |
| 2026-05-07 17:03 | 45.64692 | -109.86705 | 37927 ft | 448 kts | 266° |
| 2026-05-07 17:04 | 45.63501 | -109.95448 | 37916 ft | 448 kts | 266° |
| 2026-05-07 17:04 | 45.62303 | -110.04175 | 37925 ft | 447 kts | 266° |
| 2026-05-07 17:05 | 45.61099 | -110.12891 | 37922 ft | 447 kts | 265° |
| 2026-05-07 17:05 | 45.59890 | -110.21598 | 37925 ft | 447 kts | 265° |
| 2026-05-07 17:06 | 45.58675 | -110.30302 | 37942 ft | 447 kts | 265° |
| 2026-05-07 17:06 | 45.57453 | -110.38995 | 37946 ft | 446 kts | 265° |
| 2026-05-07 17:07 | 45.56227 | -110.47662 | 37942 ft | 446 kts | 265° |
| 2026-05-07 17:07 | 45.54996 | -110.56325 | 37950 ft | 445 kts | 265° |
| 2026-05-07 17:08 | 45.53768 | -110.64929 | 37949 ft | 445 kts | 265° |
| 2026-05-07 17:08 | 45.52525 | -110.73586 | 37957 ft | 445 kts | 265° |
| 2026-05-07 17:09 | 45.51279 | -110.82198 | 37956 ft | 443 kts | 265° |
| 2026-05-07 17:09 | 45.50026 | -110.90808 | 37964 ft | 444 kts | 265° |
| 2026-05-07 17:10 | 45.48770 | -110.99429 | 37967 ft | 444 kts | 265° |
| 2026-05-07 17:10 | 45.47504 | -111.08039 | 37953 ft | 444 kts | 265° |
| 2026-05-07 17:11 | 45.46233 | -111.16629 | 37969 ft | 442 kts | 265° |
| 2026-05-07 17:11 | 45.44958 | -111.25214 | 37968 ft | 443 kts | 265° |
| 2026-05-07 17:12 | 45.43687 | -111.33783 | 37970 ft | 442 kts | 265° |
| 2026-05-07 17:12 | 45.42401 | -111.42346 | 37961 ft | 443 kts | 265° |
| 2026-05-07 17:13 | 45.41103 | -111.50898 | 37952 ft | 441 kts | 265° |
| 2026-05-07 17:13 | 45.39807 | -111.59414 | 37951 ft | 440 kts | 265° |
| 2026-05-07 17:14 | 45.38508 | -111.67922 | 37951 ft | 440 kts | 265° |
| 2026-05-07 17:14 | 45.37203 | -111.76418 | 37943 ft | 440 kts | 265° |
| 2026-05-07 17:15 | 45.35901 | -111.84848 | 37942 ft | 439 kts | 265° |
| 2026-05-07 17:15 | 45.34587 | -111.93313 | 37951 ft | 438 kts | 265° |
| 2026-05-07 17:16 | 45.33272 | -112.01762 | 37951 ft | 439 kts | 265° |
| 2026-05-07 17:16 | 45.31946 | -112.10221 | 37981 ft | 438 kts | 265° |
| 2026-05-07 17:17 | 45.30616 | -112.18660 | 37963 ft | 437 kts | 265° |
| 2026-05-07 17:17 | 45.29285 | -112.27064 | 37986 ft | 435 kts | 265° |
| 2026-05-07 17:18 | 45.27954 | -112.35444 | 37966 ft | 435 kts | 265° |
| 2026-05-07 17:18 | 45.26612 | -112.43830 | 37955 ft | 436 kts | 265° |
| 2026-05-07 17:19 | 45.25263 | -112.52213 | 38035 ft | 436 kts | 265° |
| 2026-05-07 17:19 | 45.23960 | -112.60593 | 38035 ft | 433 kts | 266° |
| 2026-05-07 17:20 | 45.22797 | -112.68969 | 38033 ft | 432 kts | 266° |
| 2026-05-07 17:20 | 45.21643 | -112.77330 | 38006 ft | 432 kts | 266° |
| 2026-05-07 17:21 | 45.20462 | -112.85684 | 37982 ft | 432 kts | 266° |
| 2026-05-07 17:21 | 45.19269 | -112.93983 | 37944 ft | 432 kts | 266° |
| 2026-05-07 17:22 | 45.18052 | -113.02364 | 37940 ft | 431 kts | 266° |
| 2026-05-07 17:22 | 45.16842 | -113.10678 | 37941 ft | 431 kts | 266° |
| 2026-05-07 17:23 | 45.15628 | -113.18989 | 37941 ft | 431 kts | 266° |
| 2026-05-07 17:23 | 45.14416 | -113.27246 | 37939 ft | 432 kts | 265° |
| 2026-05-07 17:24 | 45.13181 | -113.35593 | 37942 ft | 433 kts | 265° |
| 2026-05-07 17:24 | 45.11942 | -113.43926 | 37960 ft | 431 kts | 265° |
| 2026-05-07 17:25 | 45.10701 | -113.52221 | 37986 ft | 431 kts | 265° |
| 2026-05-07 17:25 | 45.09451 | -113.60510 | 38005 ft | 430 kts | 265° |
| 2026-05-07 17:26 | 45.08201 | -113.68788 | 38023 ft | 431 kts | 265° |
| 2026-05-07 17:26 | 45.06947 | -113.77084 | 38044 ft | 432 kts | 265° |
| 2026-05-07 17:27 | 45.05681 | -113.85387 | 38048 ft | 432 kts | 265° |
| 2026-05-07 17:27 | 45.04409 | -113.93704 | 38039 ft | 432 kts | 265° |
| 2026-05-07 17:28 | 45.03132 | -114.01949 | 38027 ft | 432 kts | 265° |
| 2026-05-07 17:28 | 45.01846 | -114.10262 | 38005 ft | 433 kts | 266° |
| 2026-05-07 17:29 | 45.00861 | -114.18597 | 37982 ft | 428 kts | 269° |
| 2026-05-07 17:29 | 45.00025 | -114.26937 | 37966 ft | 428 kts | 269° |
| 2026-05-07 17:30 | 44.99144 | -114.35262 | 37944 ft | 429 kts | 268° |
| 2026-05-07 17:30 | 44.98216 | -114.43578 | 37947 ft | 428 kts | 268° |
| 2026-05-07 17:31 | 44.97269 | -114.51884 | 37958 ft | 429 kts | 268° |
| 2026-05-07 17:31 | 44.96314 | -114.60199 | 37962 ft | 430 kts | 268° |
| 2026-05-07 17:32 | 44.95516 | -114.67114 | 37951 ft | 429 kts | 268° |
| 2026-05-07 17:32 | 44.94554 | -114.75431 | 37951 ft | 429 kts | 267° |
| 2026-05-07 17:33 | 44.93585 | -114.83754 | 37950 ft | 429 kts | 268° |
| 2026-05-07 17:33 | 44.92608 | -114.92065 | 37977 ft | 429 kts | 268° |
| 2026-05-07 17:34 | 44.91630 | -115.00356 | 37979 ft | 429 kts | 268° |
| 2026-05-07 17:34 | 44.90669 | -115.08661 | 37966 ft | 430 kts | 268° |
| 2026-05-07 17:35 | 44.89671 | -115.16970 | 37934 ft | 429 kts | 267° |
| 2026-05-07 17:35 | 44.88661 | -115.25221 | 37948 ft | 430 kts | 266° |
| 2026-05-07 17:36 | 44.87653 | -115.33586 | 37996 ft | 430 kts | 267° |
| 2026-05-07 17:36 | 44.86643 | -115.41914 | 37993 ft | 431 kts | 267° |
| 2026-05-07 17:37 | 44.85619 | -115.50178 | 38001 ft | 430 kts | 267° |
| 2026-05-07 17:37 | 44.84593 | -115.58471 | 38001 ft | 431 kts | 266° |
| 2026-05-07 17:38 | 44.83556 | -115.66798 | 38031 ft | 431 kts | 266° |
| 2026-05-07 17:38 | 44.82517 | -115.75097 | 38054 ft | 430 kts | 267° |
| 2026-05-07 17:39 | 44.81476 | -115.83385 | 38078 ft | 430 kts | 266° |
| 2026-05-07 17:39 | 44.80428 | -115.91684 | 38054 ft | 430 kts | 266° |
| 2026-05-07 17:40 | 44.79370 | -115.99988 | 38109 ft | 431 kts | 266° |
| 2026-05-07 17:40 | 44.78305 | -116.08293 | 38114 ft | 431 kts | 266° |
| 2026-05-07 17:41 | 44.77235 | -116.16600 | 38107 ft | 431 kts | 266° |
| 2026-05-07 17:41 | 44.76650 | -116.24923 | 38095 ft | 425 kts | 273° |
| 2026-05-07 17:42 | 44.76443 | -116.33225 | 38033 ft | 425 kts | 274° |
| 2026-05-07 17:42 | 44.76292 | -116.41551 | 38034 ft | 426 kts | 274° |
| 2026-05-07 17:43 | 44.76133 | -116.49892 | 38032 ft | 427 kts | 274° |
| 2026-05-07 17:43 | 44.75959 | -116.58187 | 38034 ft | 426 kts | 274° |
| 2026-05-07 17:44 | 44.75773 | -116.66541 | 38033 ft | 427 kts | 274° |
| 2026-05-07 17:44 | 44.75582 | -116.74886 | 38035 ft | 428 kts | 274° |
| 2026-05-07 17:45 | 44.75390 | -116.83275 | 38038 ft | 429 kts | 273° |
| 2026-05-07 17:45 | 44.75183 | -116.91656 | 38040 ft | 428 kts | 273° |
| 2026-05-07 17:46 | 44.74969 | -117.00012 | 38042 ft | 427 kts | 273° |
| 2026-05-07 17:46 | 44.74753 | -117.08363 | 38045 ft | 428 kts | 273° |
| 2026-05-07 17:47 | 44.74530 | -117.16727 | 38041 ft | 428 kts | 273° |
| 2026-05-07 17:47 | 44.74301 | -117.25086 | 38044 ft | 428 kts | 273° |
| 2026-05-07 17:48 | 44.74068 | -117.33448 | 38044 ft | 428 kts | 273° |
| 2026-05-07 17:48 | 44.73830 | -117.41750 | 38059 ft | 428 kts | 273° |
| 2026-05-07 17:49 | 44.73583 | -117.50105 | 38070 ft | 427 kts | 273° |
| 2026-05-07 17:49 | 44.73332 | -117.58459 | 38083 ft | 429 kts | 272° |
| 2026-05-07 17:50 | 44.73071 | -117.66848 | 38090 ft | 430 kts | 272° |
| 2026-05-07 17:50 | 44.72806 | -117.75245 | 38093 ft | 430 kts | 272° |
| 2026-05-07 17:51 | 44.72533 | -117.83641 | 38093 ft | 429 kts | 272° |
| 2026-05-07 17:51 | 44.72256 | -117.92025 | 38091 ft | 429 kts | 272° |
| 2026-05-07 17:52 | 44.71974 | -118.00358 | 38082 ft | 430 kts | 272° |
| 2026-05-07 17:52 | 44.71683 | -118.08772 | 38074 ft | 431 kts | 272° |
| 2026-05-07 17:53 | 44.71385 | -118.17192 | 38055 ft | 431 kts | 272° |
| 2026-05-07 17:53 | 44.71079 | -118.25627 | 38061 ft | 431 kts | 272° |
| 2026-05-07 17:54 | 44.70769 | -118.34044 | 38063 ft | 431 kts | 272° |
| 2026-05-07 17:54 | 44.70454 | -118.42474 | 38061 ft | 433 kts | 271° |
| 2026-05-07 17:55 | 44.70131 | -118.50968 | 38068 ft | 435 kts | 271° |
| 2026-05-07 17:55 | 44.69799 | -118.59386 | 38067 ft | 434 kts | 271° |
| 2026-05-07 17:56 | 44.69461 | -118.67861 | 38061 ft | 435 kts | 271° |
| 2026-05-07 17:56 | 44.69118 | -118.76334 | 38066 ft | 433 kts | 271° |
| 2026-05-07 17:57 | 44.68829 | -118.83363 | 38072 ft | 434 kts | 271° |
| 2026-05-07 17:57 | 44.68413 | -118.93281 | 38073 ft | 435 kts | 271° |
| 2026-05-07 17:58 | 44.68050 | -119.01772 | 38074 ft | 435 kts | 271° |
| 2026-05-07 17:58 | 44.67680 | -119.10258 | 38078 ft | 435 kts | 271° |
| 2026-05-07 17:59 | 44.67304 | -119.18746 | 38065 ft | 435 kts | 270° |
| 2026-05-07 17:59 | 44.66922 | -119.27253 | 38069 ft | 437 kts | 270° |
| 2026-05-07 18:00 | 44.66533 | -119.35738 | 38071 ft | 438 kts | 270° |
| 2026-05-07 18:00 | 44.66135 | -119.44281 | 38071 ft | 438 kts | 270° |
| 2026-05-07 18:01 | 44.65729 | -119.52825 | 38073 ft | 438 kts | 270° |
| 2026-05-07 18:01 | 44.65321 | -119.61369 | 38052 ft | 439 kts | 269° |
| 2026-05-07 18:02 | 44.64056 | -119.74134 | 38070 ft | 445 kts | 258° |
| 2026-05-07 18:03 | 44.62182 | -119.82450 | 38067 ft | 447 kts | 256° |
| 2026-05-07 18:03 | 44.60164 | -119.90721 | 38072 ft | 448 kts | 256° |
| 2026-05-07 18:04 | 44.58132 | -119.98984 | 38060 ft | 448 kts | 255° |
| 2026-05-07 18:04 | 44.56108 | -120.07261 | 38074 ft | 449 kts | 255° |
| 2026-05-07 18:05 | 44.54082 | -120.15552 | 38072 ft | 449 kts | 255° |
| 2026-05-07 18:05 | 44.52068 | -120.23770 | 38082 ft | 449 kts | 255° |
| 2026-05-07 18:06 | 44.50032 | -120.32049 | 38068 ft | 449 kts | 255° |
| 2026-05-07 18:06 | 44.47986 | -120.40338 | 38075 ft | 451 kts | 255° |
| 2026-05-07 18:07 | 44.45927 | -120.48646 | 38080 ft | 451 kts | 255° |
| 2026-05-07 18:07 | 44.43864 | -120.56938 | 38079 ft | 451 kts | 255° |
| 2026-05-07 18:08 | 44.41797 | -120.65221 | 38056 ft | 451 kts | 254° |
| 2026-05-07 18:08 | 44.39714 | -120.73538 | 38078 ft | 454 kts | 254° |
| 2026-05-07 18:09 | 44.37617 | -120.81874 | 38076 ft | 455 kts | 254° |
| 2026-05-07 18:09 | 44.35513 | -120.90212 | 38074 ft | 455 kts | 254° |
| 2026-05-07 18:10 | 44.33402 | -120.98544 | 38073 ft | 455 kts | 254° |
| 2026-05-07 18:10 | 44.31284 | -121.06874 | 38066 ft | 455 kts | 254° |
| 2026-05-07 18:11 | 44.29163 | -121.15193 | 38129 ft | 455 kts | 254° |
| 2026-05-07 18:11 | 44.27049 | -121.23452 | 38128 ft | 455 kts | 254° |
| 2026-05-07 18:12 | 44.25321 | -121.31883 | 38338 ft | 450 kts | 264° |
| 2026-05-07 18:12 | 44.24905 | -121.36203 | 38466 ft | 450 kts | 266° |
| 2026-05-07 18:12 | 44.24570 | -121.40537 | 38653 ft | 449 kts | 267° |
| 2026-05-07 18:12 | 44.24277 | -121.44860 | 38856 ft | 447 kts | 267° |
| 2026-05-07 18:13 | 44.24002 | -121.49179 | 39014 ft | 446 kts | 268° |
| 2026-05-07 18:13 | 44.23730 | -121.53488 | 39137 ft | 446 kts | 268° |
| 2026-05-07 18:13 | 44.23454 | -121.57805 | 39254 ft | 447 kts | 267° |
| 2026-05-07 18:13 | 44.23172 | -121.62112 | 39360 ft | 447 kts | 267° |
| 2026-05-07 18:14 | 44.22885 | -121.66423 | 39500 ft | 447 kts | 267° |
| 2026-05-07 18:14 | 44.22592 | -121.70747 | 39624 ft | 447 kts | 267° |
| 2026-05-07 18:14 | 44.22296 | -121.75070 | 39654 ft | 448 kts | 267° |
| 2026-05-07 18:15 | 44.21696 | -121.83737 | 39863 ft | 449 kts | 267° |
| 2026-05-07 18:15 | 44.21394 | -121.88068 | 39992 ft | 449 kts | 267° |
| 2026-05-07 18:15 | 44.21089 | -121.92400 | 40080 ft | 449 kts | 267° |
| 2026-05-07 18:16 | 44.20475 | -122.01085 | 40122 ft | 450 kts | 266° |
| 2026-05-07 18:16 | 44.19853 | -122.09777 | 40109 ft | 451 kts | 266° |
| 2026-05-07 18:17 | 44.19230 | -122.18411 | 40133 ft | 452 kts | 266° |
| 2026-05-07 18:17 | 44.18594 | -122.27124 | 40132 ft | 452 kts | 266° |
| 2026-05-07 18:18 | 44.17952 | -122.35829 | 40141 ft | 452 kts | 266° |
| 2026-05-07 18:18 | 44.17303 | -122.44539 | 40143 ft | 452 kts | 266° |
| 2026-05-07 18:19 | 44.16649 | -122.53250 | 40144 ft | 452 kts | 266° |
| 2026-05-07 18:19 | 44.15986 | -122.61962 | 40156 ft | 452 kts | 266° |
| 2026-05-07 18:20 | 44.15315 | -122.70679 | 40165 ft | 453 kts | 266° |
| 2026-05-07 18:20 | 44.14761 | -122.77916 | 40167 ft | 452 kts | 266° |
| 2026-05-07 18:21 | 44.14227 | -122.86623 | 40178 ft | 451 kts | 267° |
| 2026-05-07 18:21 | 44.13739 | -122.95328 | 40180 ft | 451 kts | 267° |
| 2026-05-07 18:22 | 44.13226 | -123.04052 | 40192 ft | 452 kts | 267° |
| 2026-05-07 18:22 | 44.12691 | -123.12775 | 40191 ft | 452 kts | 266° |
| 2026-05-07 18:23 | 44.12025 | -123.21480 | 40194 ft | 454 kts | 261° |
| 2026-05-07 18:23 | 44.10432 | -123.29995 | 40191 ft | 455 kts | 256° |
| 2026-05-07 18:24 | 44.08589 | -123.38443 | 40192 ft | 456 kts | 255° |
| 2026-05-07 18:24 | 44.06714 | -123.46815 | 40186 ft | 456 kts | 255° |
| 2026-05-07 18:25 | 44.04832 | -123.55241 | 40185 ft | 456 kts | 255° |
| 2026-05-07 18:25 | 44.02955 | -123.63669 | 40179 ft | 456 kts | 255° |
| 2026-05-07 18:26 | 44.01076 | -123.72090 | 40179 ft | 457 kts | 255° |
| 2026-05-07 18:26 | 43.99187 | -123.80522 | 40175 ft | 457 kts | 255° |
| 2026-05-07 18:27 | 43.97291 | -123.88946 | 40179 ft | 457 kts | 254° |
| 2026-05-07 18:27 | 43.95388 | -123.97366 | 40182 ft | 457 kts | 254° |
| 2026-05-07 18:28 | 43.93479 | -124.05790 | 40176 ft | 457 kts | 254° |
| 2026-05-07 18:28 | 43.91564 | -124.14199 | 40181 ft | 457 kts | 254° |
| 2026-05-07 18:29 | 43.89643 | -124.22606 | 40186 ft | 457 kts | 254° |
| 2026-05-07 18:29 | 43.87728 | -124.30952 | 40186 ft | 457 kts | 254° |
| 2026-05-07 18:30 | 43.85795 | -124.39345 | 40188 ft | 457 kts | 253° |
| 2026-05-07 18:30 | 43.83854 | -124.47741 | 40189 ft | 458 kts | 253° |
| 2026-05-07 18:31 | 43.81906 | -124.56137 | 40190 ft | 458 kts | 253° |
| 2026-05-07 18:31 | 43.79952 | -124.64525 | 40189 ft | 458 kts | 253° |
| 2026-05-07 18:32 | 43.77993 | -124.72902 | 40189 ft | 458 kts | 253° |
| 2026-05-07 18:32 | 43.76027 | -124.81279 | 40189 ft | 458 kts | 253° |
| 2026-05-07 18:33 | 43.74053 | -124.89654 | 40191 ft | 458 kts | 253° |
| 2026-05-07 18:33 | 43.72074 | -124.98022 | 40189 ft | 458 kts | 253° |
| 2026-05-07 18:34 | 43.70089 | -125.06385 | 40193 ft | 458 kts | 253° |
| 2026-05-07 18:34 | 43.68096 | -125.14752 | 40194 ft | 459 kts | 253° |
| 2026-05-07 18:35 | 43.66095 | -125.23119 | 40194 ft | 459 kts | 253° |
| 2026-05-07 18:35 | 43.64088 | -125.31479 | 40200 ft | 459 kts | 253° |
| 2026-05-07 18:36 | 43.62074 | -125.39839 | 40199 ft | 459 kts | 252° |
| 2026-05-07 18:36 | 43.60051 | -125.48203 | 40200 ft | 459 kts | 252° |
| 2026-05-07 18:37 | 43.58036 | -125.56506 | 40203 ft | 459 kts | 252° |
| 2026-05-07 18:37 | 43.56000 | -125.64862 | 40203 ft | 459 kts | 252° |
| 2026-05-07 18:38 | 43.53957 | -125.73219 | 40205 ft | 460 kts | 252° |
| 2026-05-07 18:38 | 43.51909 | -125.81567 | 40211 ft | 460 kts | 252° |
| 2026-05-07 18:39 | 43.49855 | -125.89904 | 40208 ft | 460 kts | 252° |
| 2026-05-07 18:39 | 43.47795 | -125.98242 | 40208 ft | 460 kts | 252° |
| 2026-05-07 18:40 | 43.45730 | -126.06563 | 40208 ft | 459 kts | 252° |
| 2026-05-07 18:40 | 43.43664 | -126.14864 | 40216 ft | 458 kts | 252° |
| 2026-05-07 18:41 | 43.41606 | -126.23100 | 40216 ft | 458 kts | 252° |
| 2026-05-07 18:41 | 43.39527 | -126.31389 | 40216 ft | 458 kts | 251° |
| 2026-05-07 18:42 | 43.37443 | -126.39672 | 40220 ft | 459 kts | 251° |
| 2026-05-07 18:42 | 43.35351 | -126.47957 | 40219 ft | 459 kts | 251° |
| 2026-05-07 18:43 | 43.33253 | -126.56236 | 40222 ft | 459 kts | 251° |
| 2026-05-07 18:43 | 43.31146 | -126.64515 | 40221 ft | 459 kts | 251° |
| 2026-05-07 18:44 | 43.28440 | -126.72466 | 40224 ft | 460 kts | 243° |
| 2026-05-07 18:44 | 43.25356 | -126.80159 | 40225 ft | 460 kts | 242° |
| 2026-05-07 18:45 | 43.22203 | -126.87807 | 40226 ft | 460 kts | 241° |
| 2026-05-07 18:45 | 43.19048 | -126.95448 | 40225 ft | 460 kts | 242° |
| 2026-05-07 18:46 | 43.15925 | -127.03027 | 40228 ft | 460 kts | 242° |
| 2026-05-07 18:46 | 43.12782 | -127.10649 | 40229 ft | 459 kts | 242° |
| 2026-05-07 18:47 | 43.09633 | -127.18266 | 40234 ft | 459 kts | 242° |
| 2026-05-07 18:47 | 43.06481 | -127.25870 | 40232 ft | 459 kts | 241° |
| 2026-05-07 18:48 | 43.03332 | -127.33446 | 40235 ft | 458 kts | 241° |
| 2026-05-07 18:48 | 43.00183 | -127.41002 | 40238 ft | 458 kts | 241° |
| 2026-05-07 18:49 | 42.97026 | -127.48557 | 40236 ft | 458 kts | 241° |
| 2026-05-07 18:49 | 42.93867 | -127.56099 | 40236 ft | 457 kts | 241° |
| 2026-05-07 18:50 | 42.90706 | -127.63626 | 40239 ft | 457 kts | 241° |
| 2026-05-07 18:50 | 42.87538 | -127.71149 | 40239 ft | 457 kts | 241° |
| 2026-05-07 18:51 | 42.84368 | -127.78657 | 40241 ft | 457 kts | 241° |
| 2026-05-07 18:51 | 42.81193 | -127.86158 | 40243 ft | 457 kts | 241° |
| 2026-05-07 18:52 | 42.78033 | -127.93605 | 40245 ft | 457 kts | 241° |
| 2026-05-07 18:52 | 42.74846 | -128.01096 | 40243 ft | 457 kts | 241° |
| 2026-05-07 18:53 | 42.71657 | -128.08572 | 40245 ft | 456 kts | 241° |
| 2026-05-07 18:53 | 42.68471 | -128.16022 | 40247 ft | 456 kts | 241° |
| 2026-05-07 18:54 | 42.65282 | -128.23462 | 40246 ft | 455 kts | 241° |
| 2026-05-07 18:54 | 42.62088 | -128.30893 | 40244 ft | 455 kts | 240° |
| 2026-05-07 18:55 | 42.58892 | -128.38311 | 40248 ft | 455 kts | 240° |
| 2026-05-07 18:55 | 42.55712 | -128.45673 | 40248 ft | 455 kts | 240° |
| 2026-05-07 18:56 | 42.52510 | -128.53066 | 40250 ft | 455 kts | 240° |
| 2026-05-07 18:56 | 42.49302 | -128.60454 | 40247 ft | 454 kts | 240° |
| 2026-05-07 18:57 | 42.46094 | -128.67826 | 40248 ft | 454 kts | 240° |
| 2026-05-07 18:57 | 42.42884 | -128.75184 | 40248 ft | 454 kts | 240° |
| 2026-05-07 18:58 | 42.39666 | -128.82540 | 40245 ft | 454 kts | 240° |
| 2026-05-07 18:58 | 42.36452 | -128.89869 | 40249 ft | 453 kts | 240° |
| 2026-05-07 18:59 | 42.33230 | -128.97202 | 40248 ft | 454 kts | 240° |
| 2026-05-07 18:59 | 42.29996 | -129.04541 | 40252 ft | 454 kts | 240° |
| 2026-05-07 19:00 | 42.26760 | -129.11864 | 40252 ft | 453 kts | 240° |
| 2026-05-07 19:00 | 42.23537 | -129.19141 | 40255 ft | 451 kts | 240° |
| 2026-05-07 19:01 | 42.20318 | -129.26393 | 40253 ft | 450 kts | 240° |
| 2026-05-07 19:01 | 42.17092 | -129.33642 | 40252 ft | 451 kts | 240° |
| 2026-05-07 19:02 | 42.13889 | -129.40823 | 40252 ft | 449 kts | 240° |
| 2026-05-07 19:02 | 42.10666 | -129.48031 | 40252 ft | 448 kts | 240° |
| 2026-05-07 19:03 | 42.07444 | -129.55219 | 40251 ft | 448 kts | 240° |
| 2026-05-07 19:03 | 42.04214 | -129.62408 | 40252 ft | 448 kts | 240° |
| 2026-05-07 19:04 | 42.00991 | -129.69563 | 40252 ft | 447 kts | 240° |
| 2026-05-07 19:04 | 41.97765 | -129.76709 | 40252 ft | 447 kts | 240° |
| 2026-05-07 19:05 | 41.94538 | -129.83839 | 40254 ft | 447 kts | 240° |
| 2026-05-07 19:05 | 41.91327 | -129.90918 | 40257 ft | 447 kts | 240° |
| 2026-05-07 19:06 | 41.88085 | -129.98048 | 40257 ft | 447 kts | 240° |
| 2026-05-07 19:06 | 41.83218 | -130.08719 | 40257 ft | 447 kts | 240° |
| 2026-05-07 19:07 | 41.79971 | -130.15819 | 40254 ft | 446 kts | 240° |
| 2026-05-07 19:07 | 41.76723 | -130.22903 | 40257 ft | 446 kts | 240° |
| 2026-05-07 19:08 | 41.73470 | -130.29982 | 40257 ft | 446 kts | 240° |
| 2026-05-07 19:08 | 41.70212 | -130.37053 | 40257 ft | 446 kts | 240° |
| 2026-05-07 19:09 | 41.67502 | -130.42924 | 40254 ft | 446 kts | 240° |
| 2026-05-07 19:09 | 41.64238 | -130.49980 | 40254 ft | 446 kts | 240° |
| 2026-05-07 19:10 | 41.60968 | -130.57032 | 40257 ft | 446 kts | 240° |
| 2026-05-07 19:10 | 41.57694 | -130.64076 | 40255 ft | 445 kts | 240° |
| 2026-05-07 19:11 | 41.54431 | -130.71078 | 40257 ft | 444 kts | 240° |
| 2026-05-07 19:11 | 41.51168 | -130.78068 | 40257 ft | 444 kts | 240° |
| 2026-05-07 19:12 | 41.47902 | -130.85047 | 40260 ft | 443 kts | 240° |
| 2026-05-07 19:12 | 41.44634 | -130.92012 | 40260 ft | 442 kts | 240° |
| 2026-05-07 19:13 | 41.41374 | -130.98946 | 40257 ft | 441 kts | 240° |
| 2026-05-07 19:13 | 41.38112 | -131.05869 | 40257 ft | 441 kts | 240° |
| 2026-05-07 19:14 | 41.34869 | -131.12736 | 40256 ft | 440 kts | 240° |
| 2026-05-07 19:14 | 41.31616 | -131.19606 | 40257 ft | 438 kts | 240° |
| 2026-05-07 19:15 | 41.28370 | -131.26448 | 40258 ft | 437 kts | 240° |
| 2026-05-07 19:15 | 41.25122 | -131.33279 | 40257 ft | 437 kts | 240° |
| 2026-05-07 19:16 | 41.21871 | -131.40102 | 40255 ft | 436 kts | 240° |
| 2026-05-07 19:16 | 41.18627 | -131.46893 | 40255 ft | 435 kts | 240° |
| 2026-05-07 19:17 | 41.15385 | -131.53667 | 40251 ft | 435 kts | 240° |
| 2026-05-07 19:17 | 41.12137 | -131.60438 | 40245 ft | 435 kts | 239° |
| 2026-05-07 19:18 | 41.08888 | -131.67194 | 40251 ft | 434 kts | 239° |
| 2026-05-07 19:18 | 41.05640 | -131.73934 | 40246 ft | 434 kts | 239° |
| 2026-05-07 19:19 | 41.02386 | -131.80672 | 40244 ft | 434 kts | 239° |
| 2026-05-07 19:19 | 40.99131 | -131.87398 | 40244 ft | 433 kts | 239° |
| 2026-05-07 19:20 | 40.95872 | -131.94117 | 40239 ft | 433 kts | 239° |
| 2026-05-07 19:20 | 40.92635 | -132.00776 | 40241 ft | 433 kts | 239° |
| 2026-05-07 19:21 | 40.89372 | -132.07475 | 40239 ft | 433 kts | 239° |
| 2026-05-07 19:21 | 40.86110 | -132.14155 | 40239 ft | 432 kts | 239° |
| 2026-05-07 19:22 | 40.82847 | -132.20824 | 40236 ft | 432 kts | 239° |
| 2026-05-07 19:22 | 40.79582 | -132.27484 | 40236 ft | 432 kts | 239° |
| 2026-05-07 19:23 | 40.76313 | -132.34136 | 40233 ft | 432 kts | 239° |
| 2026-05-07 19:23 | 40.73042 | -132.40779 | 40233 ft | 431 kts | 238° |
| 2026-05-07 19:24 | 40.69771 | -132.47408 | 40233 ft | 431 kts | 238° |
| 2026-05-07 19:24 | 40.66492 | -132.54038 | 40227 ft | 431 kts | 238° |
| 2026-05-07 19:25 | 40.63213 | -132.60654 | 40230 ft | 431 kts | 238° |
| 2026-05-07 19:25 | 40.59931 | -132.67262 | 40228 ft | 431 kts | 238° |
| 2026-05-07 19:26 | 40.56644 | -132.73866 | 40225 ft | 431 kts | 238° |
| 2026-05-07 19:26 | 40.53355 | -132.80460 | 40225 ft | 431 kts | 238° |
| 2026-05-07 19:27 | 40.50061 | -132.87049 | 40221 ft | 431 kts | 238° |
| 2026-05-07 19:27 | 40.46763 | -132.93633 | 40221 ft | 431 kts | 238° |
| 2026-05-07 19:28 | 40.43462 | -133.00210 | 40218 ft | 431 kts | 238° |
| 2026-05-07 19:28 | 40.40180 | -133.06734 | 40220 ft | 431 kts | 238° |
| 2026-05-07 19:29 | 40.36871 | -133.13298 | 40216 ft | 431 kts | 238° |
| 2026-05-07 19:29 | 40.33557 | -133.19858 | 40214 ft | 431 kts | 238° |
| 2026-05-07 19:30 | 40.30244 | -133.26404 | 40213 ft | 431 kts | 238° |
| 2026-05-07 19:30 | 40.26925 | -133.32945 | 40212 ft | 431 kts | 238° |
| 2026-05-07 19:31 | 40.23608 | -133.39470 | 40210 ft | 431 kts | 238° |
| 2026-05-07 19:31 | 40.20287 | -133.45991 | 40212 ft | 431 kts | 237° |
| 2026-05-07 19:32 | 40.16981 | -133.52467 | 40212 ft | 430 kts | 237° |
| 2026-05-07 19:32 | 40.13648 | -133.58983 | 40208 ft | 430 kts | 237° |
| 2026-05-07 19:33 | 40.10317 | -133.65481 | 40202 ft | 430 kts | 237° |
| 2026-05-07 19:33 | 40.06986 | -133.71968 | 40201 ft | 430 kts | 237° |
| 2026-05-07 19:34 | 40.03647 | -133.78455 | 40200 ft | 430 kts | 237° |
| 2026-05-07 19:34 | 40.00304 | -133.84937 | 40197 ft | 430 kts | 237° |
| 2026-05-07 19:35 | 39.96957 | -133.91413 | 40197 ft | 430 kts | 237° |
| 2026-05-07 19:35 | 39.93607 | -133.97882 | 40197 ft | 430 kts | 237° |
| 2026-05-07 19:36 | 39.90258 | -134.04334 | 40197 ft | 430 kts | 237° |
| 2026-05-07 19:36 | 39.86900 | -134.10792 | 40192 ft | 430 kts | 237° |
| 2026-05-07 19:37 | 39.83544 | -134.17234 | 40191 ft | 430 kts | 237° |
| 2026-05-07 19:37 | 39.80183 | -134.23671 | 40191 ft | 430 kts | 237° |
| 2026-05-07 19:38 | 39.76817 | -134.30104 | 40185 ft | 430 kts | 237° |
| 2026-05-07 19:38 | 39.73471 | -134.36484 | 40191 ft | 431 kts | 237° |
| 2026-05-07 19:39 | 39.70089 | -134.42923 | 40185 ft | 431 kts | 237° |
| 2026-05-07 19:39 | 39.66702 | -134.49357 | 40174 ft | 431 kts | 237° |
| 2026-05-07 19:40 | 39.63314 | -134.55782 | 40175 ft | 431 kts | 237° |
| 2026-05-07 19:40 | 39.59922 | -134.62199 | 40175 ft | 431 kts | 237° |
| 2026-05-07 19:41 | 39.56525 | -134.68615 | 40171 ft | 431 kts | 237° |
| 2026-05-07 19:41 | 39.53125 | -134.75021 | 40172 ft | 432 kts | 237° |
| 2026-05-07 19:42 | 39.49720 | -134.81425 | 40173 ft | 431 kts | 237° |
| 2026-05-07 19:42 | 39.46315 | -134.87816 | 40174 ft | 431 kts | 237° |
| 2026-05-07 19:43 | 39.42904 | -134.94205 | 40160 ft | 431 kts | 237° |
| 2026-05-07 19:43 | 39.39512 | -135.00550 | 40163 ft | 431 kts | 237° |
| 2026-05-07 19:44 | 39.36093 | -135.06937 | 40153 ft | 431 kts | 237° |
| 2026-05-07 19:44 | 39.32676 | -135.13308 | 40151 ft | 432 kts | 237° |
| 2026-05-07 19:45 | 39.29255 | -135.19674 | 40155 ft | 431 kts | 237° |
| 2026-05-07 19:45 | 39.25830 | -135.26034 | 40152 ft | 431 kts | 237° |
| 2026-05-07 19:46 | 39.22407 | -135.32378 | 40164 ft | 431 kts | 237° |
| 2026-05-07 19:46 | 39.18978 | -135.38721 | 40150 ft | 431 kts | 236° |
| 2026-05-07 19:47 | 39.15547 | -135.45055 | 40148 ft | 431 kts | 236° |
| 2026-05-07 19:47 | 39.12117 | -135.51375 | 40154 ft | 430 kts | 236° |
| 2026-05-07 19:48 | 39.08683 | -135.57689 | 40159 ft | 430 kts | 236° |
| 2026-05-07 19:48 | 39.05244 | -135.64001 | 40144 ft | 430 kts | 237° |
| 2026-05-07 19:49 | 39.01807 | -135.70297 | 40138 ft | 430 kts | 236° |
| 2026-05-07 19:49 | 38.98365 | -135.76588 | 40147 ft | 430 kts | 236° |
| 2026-05-07 19:50 | 38.94922 | -135.82869 | 40137 ft | 430 kts | 237° |
| 2026-05-07 19:50 | 38.91484 | -135.89130 | 40135 ft | 428 kts | 237° |
| 2026-05-07 19:51 | 38.88046 | -135.95379 | 40130 ft | 428 kts | 236° |
| 2026-05-07 19:51 | 38.84627 | -136.01581 | 40130 ft | 428 kts | 237° |
| 2026-05-07 19:52 | 38.81188 | -136.07806 | 40127 ft | 427 kts | 237° |
| 2026-05-07 19:52 | 38.77755 | -136.14008 | 40125 ft | 426 kts | 237° |
| 2026-05-07 19:53 | 38.74321 | -136.20202 | 40123 ft | 426 kts | 237° |
| 2026-05-07 19:53 | 38.70885 | -136.26388 | 40119 ft | 425 kts | 237° |
| 2026-05-07 19:54 | 38.67454 | -136.32551 | 40121 ft | 425 kts | 237° |
| 2026-05-07 19:54 | 38.64022 | -136.38708 | 40119 ft | 425 kts | 237° |
| 2026-05-07 19:55 | 38.61167 | -136.43817 | 40116 ft | 425 kts | 237° |
| 2026-05-07 19:55 | 38.57731 | -136.49956 | 40112 ft | 424 kts | 237° |
| 2026-05-07 19:56 | 38.53737 | -136.57079 | 40111 ft | 424 kts | 237° |
| 2026-05-07 19:56 | 38.50859 | -136.62202 | 40104 ft | 424 kts | 237° |
| 2026-05-07 19:57 | 38.47422 | -136.68308 | 40104 ft | 423 kts | 237° |
| 2026-05-07 19:57 | 38.44007 | -136.74365 | 40102 ft | 423 kts | 237° |
| 2026-05-07 19:58 | 38.40565 | -136.80459 | 40098 ft | 423 kts | 237° |
| 2026-05-07 19:58 | 38.37121 | -136.86544 | 40114 ft | 422 kts | 237° |
| 2026-05-07 19:59 | 38.33681 | -136.92611 | 40096 ft | 422 kts | 237° |
| 2026-05-07 19:59 | 38.30239 | -136.98671 | 40099 ft | 422 kts | 237° |
| 2026-05-07 20:00 | 38.26795 | -137.04723 | 40091 ft | 422 kts | 237° |
| 2026-05-07 20:00 | 38.23348 | -137.10769 | 40104 ft | 422 kts | 237° |
| 2026-05-07 20:01 | 38.19901 | -137.16803 | 40093 ft | 422 kts | 237° |
| 2026-05-07 20:01 | 38.16469 | -137.22801 | 40099 ft | 422 kts | 237° |
| 2026-05-07 20:02 | 38.13012 | -137.28831 | 40090 ft | 422 kts | 237° |
| 2026-05-07 20:02 | 38.09552 | -137.34854 | 40093 ft | 422 kts | 237° |
| 2026-05-07 20:03 | 38.06092 | -137.40867 | 40084 ft | 422 kts | 237° |
| 2026-05-07 20:03 | 38.02628 | -137.46876 | 40091 ft | 422 kts | 237° |
| 2026-05-07 20:04 | 37.99164 | -137.52875 | 40079 ft | 421 kts | 237° |
| 2026-05-07 20:04 | 37.95695 | -137.58870 | 40085 ft | 421 kts | 237° |
| 2026-05-07 20:05 | 37.92228 | -137.64853 | 40089 ft | 421 kts | 237° |
| 2026-05-07 20:05 | 37.88759 | -137.70826 | 40084 ft | 421 kts | 237° |
| 2026-05-07 20:06 | 37.85291 | -137.76788 | 40072 ft | 420 kts | 237° |
| 2026-05-07 20:06 | 37.81822 | -137.82740 | 40079 ft | 420 kts | 237° |
| 2026-05-07 20:07 | 37.78367 | -137.88659 | 40089 ft | 420 kts | 237° |
| 2026-05-07 20:07 | 37.74890 | -137.94603 | 40088 ft | 420 kts | 236° |
| 2026-05-07 20:08 | 37.71411 | -138.00541 | 40088 ft | 421 kts | 236° |
| 2026-05-07 20:08 | 37.67925 | -138.06480 | 40084 ft | 421 kts | 236° |
| 2026-05-07 20:09 | 37.64437 | -138.12411 | 40088 ft | 421 kts | 236° |
| 2026-05-07 20:10 | 37.59192 | -138.21311 | 40091 ft | 421 kts | 236° |
| 2026-05-07 20:10 | 37.55693 | -138.27235 | 40088 ft | 421 kts | 236° |
| 2026-05-07 20:11 | 37.52195 | -138.33147 | 40075 ft | 421 kts | 236° |
| 2026-05-07 20:11 | 37.48693 | -138.39054 | 40087 ft | 421 kts | 236° |
| 2026-05-07 20:12 | 37.45207 | -138.44923 | 40086 ft | 421 kts | 236° |
| 2026-05-07 20:12 | 37.41698 | -138.50822 | 40090 ft | 421 kts | 236° |
| 2026-05-07 20:13 | 37.38186 | -138.56716 | 40086 ft | 421 kts | 236° |
| 2026-05-07 20:13 | 37.34667 | -138.62611 | 40091 ft | 421 kts | 236° |
| 2026-05-07 20:14 | 37.31145 | -138.68498 | 40093 ft | 421 kts | 236° |
| 2026-05-07 20:14 | 37.27617 | -138.74387 | 40088 ft | 421 kts | 236° |
| 2026-05-07 20:15 | 37.24093 | -138.80260 | 40094 ft | 421 kts | 236° |
| 2026-05-07 20:15 | 37.20568 | -138.86122 | 40097 ft | 421 kts | 236° |
| 2026-05-07 20:16 | 37.17041 | -138.91978 | 40094 ft | 421 kts | 236° |
| 2026-05-07 20:16 | 37.13511 | -138.97829 | 40093 ft | 421 kts | 236° |
| 2026-05-07 20:17 | 37.09970 | -139.03688 | 40098 ft | 422 kts | 236° |
| 2026-05-07 20:17 | 37.06448 | -139.09505 | 40102 ft | 422 kts | 236° |
| 2026-05-07 20:18 | 37.02902 | -139.15351 | 40102 ft | 421 kts | 236° |
| 2026-05-07 20:18 | 36.99360 | -139.21182 | 40090 ft | 420 kts | 236° |
| 2026-05-07 20:19 | 36.95819 | -139.26999 | 40082 ft | 420 kts | 236° |
| 2026-05-07 20:19 | 36.92265 | -139.32831 | 40106 ft | 421 kts | 236° |
| 2026-05-07 20:20 | 36.88715 | -139.38643 | 40100 ft | 421 kts | 236° |
| 2026-05-07 20:20 | 36.85164 | -139.44447 | 40082 ft | 420 kts | 236° |
| 2026-05-07 20:21 | 36.81604 | -139.50256 | 40101 ft | 422 kts | 236° |
| 2026-05-07 20:21 | 36.78037 | -139.56068 | 40105 ft | 421 kts | 235° |
| 2026-05-07 20:22 | 36.74502 | -139.61815 | 40101 ft | 420 kts | 235° |
| 2026-05-07 20:22 | 36.70940 | -139.67598 | 40106 ft | 421 kts | 235° |
| 2026-05-07 20:23 | 36.67362 | -139.73397 | 40105 ft | 422 kts | 235° |
| 2026-05-07 20:23 | 36.63784 | -139.79186 | 40106 ft | 421 kts | 235° |
| 2026-05-07 20:24 | 36.60213 | -139.84952 | 40108 ft | 421 kts | 235° |
| 2026-05-07 20:24 | 36.56637 | -139.90718 | 40108 ft | 421 kts | 235° |
| 2026-05-07 20:25 | 36.53055 | -139.96485 | 40110 ft | 421 kts | 235° |
| 2026-05-07 20:25 | 36.49475 | -140.02237 | 40105 ft | 421 kts | 235° |
| 2026-05-07 20:26 | 36.45892 | -140.07983 | 40107 ft | 421 kts | 235° |
| 2026-05-07 20:26 | 36.42301 | -140.13734 | 40111 ft | 421 kts | 235° |
| 2026-05-07 20:27 | 36.38733 | -140.19438 | 40108 ft | 421 kts | 235° |
| 2026-05-07 20:27 | 36.35134 | -140.25183 | 40111 ft | 421 kts | 235° |
| 2026-05-07 20:28 | 36.31533 | -140.30921 | 40114 ft | 421 kts | 235° |
| 2026-05-07 20:28 | 36.27933 | -140.36646 | 40085 ft | 421 kts | 235° |
| 2026-05-07 20:29 | 36.24322 | -140.42382 | 40136 ft | 423 kts | 235° |
| 2026-05-07 20:29 | 36.20705 | -140.48115 | 40114 ft | 421 kts | 235° |
| 2026-05-07 20:30 | 36.17097 | -140.53824 | 40110 ft | 421 kts | 235° |
| 2026-05-07 20:30 | 36.13486 | -140.59531 | 40118 ft | 422 kts | 234° |
| 2026-05-07 20:31 | 36.09866 | -140.65242 | 40128 ft | 422 kts | 234° |
| 2026-05-07 20:31 | 36.06243 | -140.70947 | 40113 ft | 421 kts | 234° |
| 2026-05-07 20:32 | 36.02623 | -140.76637 | 40116 ft | 421 kts | 234° |
| 2026-05-07 20:32 | 35.99002 | -140.82320 | 40115 ft | 421 kts | 234° |
| 2026-05-07 20:33 | 35.95376 | -140.88001 | 40137 ft | 421 kts | 234° |
| 2026-05-07 20:33 | 35.91759 | -140.93660 | 40105 ft | 419 kts | 234° |
| 2026-05-07 20:34 | 35.88158 | -140.99285 | 40114 ft | 421 kts | 234° |
| 2026-05-07 20:34 | 35.84524 | -141.04951 | 40120 ft | 421 kts | 234° |
| 2026-05-07 20:35 | 35.80891 | -141.10606 | 40119 ft | 421 kts | 234° |
| 2026-05-07 20:35 | 35.77250 | -141.16264 | 40121 ft | 422 kts | 234° |
| 2026-05-07 20:36 | 35.73602 | -141.21924 | 40122 ft | 422 kts | 234° |
| 2026-05-07 20:36 | 35.69949 | -141.27583 | 40126 ft | 422 kts | 234° |
| 2026-05-07 20:37 | 35.66292 | -141.33238 | 40129 ft | 423 kts | 234° |
| 2026-05-07 20:37 | 35.62622 | -141.38904 | 40119 ft | 423 kts | 234° |
| 2026-05-07 20:38 | 35.58961 | -141.44546 | 40107 ft | 422 kts | 234° |
| 2026-05-07 20:38 | 35.55293 | -141.50190 | 40112 ft | 422 kts | 234° |
| 2026-05-07 20:39 | 35.51645 | -141.55796 | 40126 ft | 423 kts | 234° |
| 2026-05-07 20:39 | 35.47963 | -141.61443 | 40124 ft | 423 kts | 234° |
| 2026-05-07 20:40 | 35.44290 | -141.67068 | 40132 ft | 422 kts | 234° |
| 2026-05-07 20:40 | 35.40618 | -141.72683 | 40130 ft | 423 kts | 234° |
| 2026-05-07 20:41 | 35.36934 | -141.78306 | 40130 ft | 423 kts | 234° |
| 2026-05-07 20:41 | 35.33245 | -141.83928 | 40122 ft | 422 kts | 234° |
| 2026-05-07 20:42 | 35.29564 | -141.89528 | 40117 ft | 422 kts | 234° |
| 2026-05-07 20:42 | 35.25899 | -141.95096 | 40135 ft | 423 kts | 234° |
| 2026-05-07 20:43 | 35.22203 | -142.00702 | 40133 ft | 424 kts | 234° |
| 2026-05-07 20:43 | 35.18500 | -142.06307 | 40144 ft | 423 kts | 234° |
| 2026-05-07 20:44 | 35.14805 | -142.11894 | 40126 ft | 423 kts | 234° |
| 2026-05-07 20:44 | 35.11100 | -142.17486 | 40135 ft | 424 kts | 234° |
| 2026-05-07 20:45 | 35.08017 | -142.22132 | 40132 ft | 424 kts | 234° |
| 2026-05-07 20:45 | 35.04303 | -142.27721 | 40120 ft | 424 kts | 234° |
| 2026-05-07 20:46 | 35.00590 | -142.33300 | 40137 ft | 423 kts | 234° |
| 2026-05-07 20:46 | 34.96876 | -142.38872 | 40138 ft | 423 kts | 234° |
| 2026-05-07 20:47 | 34.93160 | -142.44429 | 40141 ft | 423 kts | 234° |
| 2026-05-07 20:47 | 34.89438 | -142.49986 | 40136 ft | 423 kts | 234° |
| 2026-05-07 20:48 | 34.85729 | -142.55518 | 40141 ft | 424 kts | 234° |
| 2026-05-07 20:48 | 34.81999 | -142.61071 | 40141 ft | 423 kts | 234° |
| 2026-05-07 20:49 | 34.78271 | -142.66615 | 40142 ft | 423 kts | 233° |
| 2026-05-07 20:49 | 34.74543 | -142.72148 | 40143 ft | 423 kts | 233° |
| 2026-05-07 20:50 | 34.70811 | -142.77680 | 40155 ft | 423 kts | 233° |
| 2026-05-07 20:50 | 34.67083 | -142.83196 | 40140 ft | 421 kts | 233° |
| 2026-05-07 20:51 | 34.63387 | -142.88656 | 40129 ft | 421 kts | 233° |
| 2026-05-07 20:51 | 34.59656 | -142.94162 | 40141 ft | 423 kts | 233° |
| 2026-05-07 20:52 | 34.55916 | -142.99670 | 40138 ft | 423 kts | 233° |
| 2026-05-07 20:52 | 34.52178 | -143.05166 | 40144 ft | 421 kts | 233° |
| 2026-05-07 20:53 | 34.48447 | -143.10644 | 40138 ft | 422 kts | 233° |
| 2026-05-07 20:53 | 34.44706 | -143.16129 | 40142 ft | 423 kts | 233° |
| 2026-05-07 20:54 | 34.40955 | -143.21620 | 40146 ft | 423 kts | 233° |
| 2026-05-07 20:54 | 34.37197 | -143.27111 | 40152 ft | 422 kts | 233° |
| 2026-05-07 20:55 | 34.33446 | -143.32584 | 40147 ft | 423 kts | 233° |
| 2026-05-07 20:55 | 34.29688 | -143.38060 | 40146 ft | 423 kts | 233° |
| 2026-05-07 20:56 | 34.25929 | -143.43528 | 40146 ft | 423 kts | 233° |
| 2026-05-07 20:56 | 34.22158 | -143.49005 | 40136 ft | 423 kts | 233° |
| 2026-05-07 20:57 | 34.18410 | -143.54441 | 40149 ft | 424 kts | 233° |
| 2026-05-07 20:57 | 34.14629 | -143.59916 | 40148 ft | 425 kts | 233° |
| 2026-05-07 20:58 | 34.10842 | -143.65391 | 40148 ft | 425 kts | 233° |
| 2026-05-07 20:58 | 34.07053 | -143.70861 | 40147 ft | 426 kts | 233° |
| 2026-05-07 20:59 | 34.03243 | -143.76353 | 40159 ft | 426 kts | 233° |
| 2026-05-07 20:59 | 33.99442 | -143.81821 | 40155 ft | 425 kts | 233° |
| 2026-05-07 21:00 | 33.95647 | -143.87275 | 40155 ft | 425 kts | 233° |
| 2026-05-07 21:00 | 33.91843 | -143.92733 | 40159 ft | 426 kts | 233° |
| 2026-05-07 21:01 | 33.88032 | -143.98194 | 40155 ft | 426 kts | 233° |
| 2026-05-07 21:01 | 33.84241 | -144.03615 | 40158 ft | 426 kts | 233° |
| 2026-05-07 21:02 | 33.80428 | -144.09061 | 40139 ft | 425 kts | 233° |
| 2026-05-07 21:02 | 33.76613 | -144.14501 | 40158 ft | 426 kts | 233° |
| 2026-05-07 21:03 | 33.72783 | -144.19955 | 40156 ft | 427 kts | 233° |
| 2026-05-07 21:03 | 33.68949 | -144.25406 | 40174 ft | 427 kts | 233° |
| 2026-05-07 21:04 | 33.65126 | -144.30832 | 40135 ft | 425 kts | 233° |
| 2026-05-07 21:04 | 33.61297 | -144.36259 | 40158 ft | 427 kts | 233° |
| 2026-05-07 21:05 | 33.57456 | -144.41696 | 40158 ft | 427 kts | 233° |
| 2026-05-07 21:05 | 33.53613 | -144.47127 | 40158 ft | 427 kts | 233° |
| 2026-05-07 21:06 | 33.49769 | -144.52551 | 40156 ft | 427 kts | 233° |
| 2026-05-07 21:06 | 33.45919 | -144.57975 | 40163 ft | 427 kts | 232° |
| 2026-05-07 21:07 | 33.42063 | -144.63400 | 40162 ft | 428 kts | 232° |
| 2026-05-07 21:07 | 33.38202 | -144.68823 | 40162 ft | 428 kts | 232° |
| 2026-05-07 21:08 | 33.34367 | -144.74202 | 40159 ft | 428 kts | 232° |
| 2026-05-07 21:08 | 33.30509 | -144.79604 | 40166 ft | 426 kts | 232° |
| 2026-05-07 21:09 | 33.26660 | -144.84987 | 40163 ft | 426 kts | 232° |
| 2026-05-07 21:09 | 33.22811 | -144.90361 | 40164 ft | 425 kts | 232° |
| 2026-05-07 21:10 | 33.18957 | -144.95736 | 40167 ft | 427 kts | 232° |
| 2026-05-07 21:10 | 33.15088 | -145.01123 | 40181 ft | 427 kts | 232° |
| 2026-05-07 21:11 | 33.11220 | -145.06499 | 40165 ft | 426 kts | 232° |
| 2026-05-07 21:11 | 33.05430 | -145.14533 | 40150 ft | 426 kts | 232° |
| 2026-05-07 21:12 | 33.01556 | -145.19900 | 40169 ft | 428 kts | 232° |
| 2026-05-07 21:12 | 32.97672 | -145.25272 | 40166 ft | 428 kts | 232° |
| 2026-05-07 21:13 | 32.93786 | -145.30637 | 40172 ft | 427 kts | 232° |
| 2026-05-07 21:13 | 32.89933 | -145.35950 | 40149 ft | 426 kts | 232° |
| 2026-05-07 21:14 | 32.86046 | -145.41303 | 40161 ft | 428 kts | 232° |
| 2026-05-07 21:14 | 32.82146 | -145.46666 | 40171 ft | 429 kts | 232° |
| 2026-05-07 21:15 | 32.78242 | -145.52026 | 40173 ft | 429 kts | 232° |
| 2026-05-07 21:15 | 32.74338 | -145.57377 | 40160 ft | 427 kts | 232° |
| 2026-05-07 21:16 | 32.70439 | -145.62714 | 40175 ft | 428 kts | 232° |
| 2026-05-07 21:16 | 32.66528 | -145.68061 | 40160 ft | 429 kts | 232° |
| 2026-05-07 21:17 | 32.62615 | -145.73401 | 40173 ft | 429 kts | 232° |
| 2026-05-07 21:17 | 32.58703 | -145.78733 | 40175 ft | 429 kts | 232° |
| 2026-05-07 21:18 | 32.54780 | -145.84073 | 40170 ft | 429 kts | 232° |
| 2026-05-07 21:18 | 32.50855 | -145.89407 | 40169 ft | 429 kts | 232° |
| 2026-05-07 21:19 | 32.46927 | -145.94737 | 40171 ft | 429 kts | 232° |
| 2026-05-07 21:19 | 32.42995 | -146.00066 | 40160 ft | 429 kts | 232° |
| 2026-05-07 21:20 | 32.39082 | -146.05362 | 40170 ft | 431 kts | 232° |
| 2026-05-07 21:20 | 32.35132 | -146.10699 | 40170 ft | 431 kts | 232° |
| 2026-05-07 21:21 | 32.31174 | -146.16039 | 40173 ft | 431 kts | 232° |
| 2026-05-07 21:21 | 32.27221 | -146.21364 | 40150 ft | 431 kts | 231° |
| 2026-05-07 21:22 | 32.23252 | -146.26705 | 40176 ft | 433 kts | 231° |
| 2026-05-07 21:22 | 32.19269 | -146.32057 | 40182 ft | 434 kts | 231° |
| 2026-05-07 21:23 | 32.15288 | -146.37395 | 40176 ft | 432 kts | 231° |
| 2026-05-07 21:23 | 32.11313 | -146.42720 | 40157 ft | 432 kts | 231° |
| 2026-05-07 21:24 | 32.07332 | -146.48047 | 40178 ft | 434 kts | 231° |
| 2026-05-07 21:24 | 32.03362 | -146.53349 | 40175 ft | 434 kts | 231° |
| 2026-05-07 21:25 | 31.99365 | -146.58681 | 40184 ft | 434 kts | 231° |
| 2026-05-07 21:25 | 31.95369 | -146.64002 | 40178 ft | 433 kts | 231° |
| 2026-05-07 21:26 | 31.91374 | -146.69316 | 40181 ft | 434 kts | 231° |
| 2026-05-07 21:26 | 31.87369 | -146.74637 | 40181 ft | 434 kts | 231° |
| 2026-05-07 21:27 | 31.83359 | -146.79954 | 40181 ft | 434 kts | 231° |
| 2026-05-07 21:27 | 31.79348 | -146.85266 | 40189 ft | 434 kts | 231° |
| 2026-05-07 21:28 | 31.75338 | -146.90568 | 40177 ft | 433 kts | 231° |
| 2026-05-07 21:28 | 31.71336 | -146.95854 | 40178 ft | 433 kts | 231° |
| 2026-05-07 21:29 | 31.67334 | -147.01132 | 40180 ft | 433 kts | 231° |
| 2026-05-07 21:29 | 31.63324 | -147.06413 | 40183 ft | 433 kts | 231° |
| 2026-05-07 21:30 | 31.59340 | -147.11653 | 40195 ft | 434 kts | 231° |
| 2026-05-07 21:30 | 31.55317 | -147.16937 | 40183 ft | 434 kts | 231° |
| 2026-05-07 21:31 | 31.51296 | -147.22209 | 40181 ft | 434 kts | 231° |
| 2026-05-07 21:31 | 31.47273 | -147.27478 | 40181 ft | 434 kts | 231° |
| 2026-05-07 21:32 | 31.43248 | -147.32742 | 40177 ft | 434 kts | 231° |
| 2026-05-07 21:32 | 31.39210 | -147.38016 | 40181 ft | 435 kts | 231° |
| 2026-05-07 21:33 | 31.35168 | -147.43288 | 40184 ft | 435 kts | 231° |
| 2026-05-07 21:33 | 31.31812 | -147.47657 | 40184 ft | 434 kts | 230° |
| 2026-05-07 21:34 | 31.27775 | -147.52909 | 40184 ft | 434 kts | 230° |
| 2026-05-07 21:34 | 31.23731 | -147.58163 | 40183 ft | 436 kts | 230° |
| 2026-05-07 21:35 | 31.19670 | -147.63430 | 40183 ft | 436 kts | 230° |
| 2026-05-07 21:35 | 31.15609 | -147.68690 | 40185 ft | 435 kts | 230° |
| 2026-05-07 21:36 | 31.11554 | -147.73937 | 40184 ft | 435 kts | 230° |
| 2026-05-07 21:36 | 31.07522 | -147.79146 | 40184 ft | 436 kts | 230° |
| 2026-05-07 21:37 | 31.03449 | -147.84400 | 40184 ft | 437 kts | 230° |
| 2026-05-07 21:37 | 30.99371 | -147.89655 | 40184 ft | 437 kts | 230° |
| 2026-05-07 21:38 | 30.95288 | -147.94906 | 40186 ft | 436 kts | 230° |
| 2026-05-07 21:38 | 30.91217 | -148.00137 | 40182 ft | 436 kts | 230° |
| 2026-05-07 21:39 | 30.87136 | -148.05372 | 40184 ft | 437 kts | 230° |
| 2026-05-07 21:39 | 30.83050 | -148.10608 | 40184 ft | 437 kts | 230° |
| 2026-05-07 21:40 | 30.78959 | -148.15842 | 40187 ft | 437 kts | 230° |
| 2026-05-07 21:40 | 30.74868 | -148.21070 | 40169 ft | 437 kts | 230° |
| 2026-05-07 21:41 | 30.70771 | -148.26299 | 40185 ft | 438 kts | 230° |
| 2026-05-07 21:41 | 30.66666 | -148.31529 | 40179 ft | 438 kts | 230° |
| 2026-05-07 21:42 | 30.62555 | -148.36761 | 40192 ft | 438 kts | 230° |
| 2026-05-07 21:42 | 30.58471 | -148.41951 | 40193 ft | 438 kts | 230° |
| 2026-05-07 21:43 | 30.54356 | -148.47173 | 40190 ft | 439 kts | 230° |
| 2026-05-07 21:43 | 30.50230 | -148.52402 | 40193 ft | 439 kts | 230° |
| 2026-05-07 21:44 | 30.46102 | -148.57626 | 40190 ft | 439 kts | 230° |
| 2026-05-07 21:44 | 30.41978 | -148.62839 | 40188 ft | 439 kts | 230° |
| 2026-05-07 21:45 | 30.37854 | -148.68045 | 40181 ft | 439 kts | 229° |
| 2026-05-07 21:45 | 30.33708 | -148.73272 | 40190 ft | 441 kts | 229° |
| 2026-05-07 21:46 | 30.29551 | -148.78505 | 40190 ft | 442 kts | 229° |
| 2026-05-07 21:46 | 30.25421 | -148.83697 | 40187 ft | 442 kts | 229° |
| 2026-05-07 21:47 | 30.21257 | -148.88924 | 40191 ft | 442 kts | 229° |
| 2026-05-07 21:47 | 30.17088 | -148.94153 | 40189 ft | 443 kts | 229° |
| 2026-05-07 21:48 | 30.12902 | -148.99394 | 40187 ft | 443 kts | 229° |
| 2026-05-07 21:48 | 30.08719 | -149.04625 | 40195 ft | 443 kts | 229° |
| 2026-05-07 21:49 | 30.04539 | -149.09846 | 40186 ft | 442 kts | 229° |
| 2026-05-07 21:49 | 30.00367 | -149.15056 | 40190 ft | 442 kts | 229° |
| 2026-05-07 21:50 | 29.96193 | -149.20263 | 40188 ft | 442 kts | 229° |
| 2026-05-07 21:50 | 29.92013 | -149.25470 | 40189 ft | 442 kts | 229° |
| 2026-05-07 21:51 | 29.87835 | -149.30667 | 40190 ft | 442 kts | 229° |
| 2026-05-07 21:51 | 29.83687 | -149.35820 | 40170 ft | 441 kts | 229° |
| 2026-05-07 21:52 | 29.79506 | -149.41010 | 40188 ft | 443 kts | 229° |
| 2026-05-07 21:52 | 29.75311 | -149.46207 | 40189 ft | 443 kts | 229° |
| 2026-05-07 21:53 | 29.71112 | -149.51403 | 40189 ft | 443 kts | 229° |
| 2026-05-07 21:53 | 29.66914 | -149.56590 | 40189 ft | 443 kts | 229° |
| 2026-05-07 21:54 | 29.62712 | -149.61777 | 40191 ft | 444 kts | 229° |
| 2026-05-07 21:54 | 29.58504 | -149.66964 | 40189 ft | 443 kts | 229° |
| 2026-05-07 21:55 | 29.54299 | -149.72140 | 40187 ft | 443 kts | 229° |
| 2026-05-07 21:55 | 29.50084 | -149.77322 | 40189 ft | 443 kts | 229° |
| 2026-05-07 21:56 | 29.45873 | -149.82492 | 40190 ft | 443 kts | 229° |
| 2026-05-07 21:56 | 29.41652 | -149.87669 | 40189 ft | 445 kts | 229° |
| 2026-05-07 21:57 | 29.37418 | -149.92853 | 40189 ft | 445 kts | 229° |
| 2026-05-07 21:57 | 29.33186 | -149.98028 | 40189 ft | 445 kts | 229° |
| 2026-05-07 21:58 | 29.28978 | -150.03168 | 40189 ft | 445 kts | 228° |
| 2026-05-07 21:58 | 29.24747 | -150.08329 | 40187 ft | 445 kts | 228° |
| 2026-05-07 21:59 | 29.20500 | -150.13503 | 40189 ft | 446 kts | 228° |
| 2026-05-07 21:59 | 29.16248 | -150.18677 | 40196 ft | 446 kts | 228° |
| 2026-05-07 22:00 | 29.12004 | -150.23833 | 40195 ft | 444 kts | 228° |
| 2026-05-07 22:00 | 29.07766 | -150.28975 | 40195 ft | 444 kts | 228° |
| 2026-05-07 22:01 | 29.03523 | -150.34119 | 40192 ft | 446 kts | 228° |
| 2026-05-07 22:01 | 28.99258 | -150.39282 | 40192 ft | 447 kts | 228° |
| 2026-05-07 22:02 | 28.94988 | -150.44443 | 40192 ft | 447 kts | 228° |
| 2026-05-07 22:02 | 28.90717 | -150.49598 | 40189 ft | 446 kts | 228° |
| 2026-05-07 22:03 | 28.86452 | -150.54741 | 40185 ft | 446 kts | 228° |
| 2026-05-07 22:03 | 28.82209 | -150.59850 | 40188 ft | 447 kts | 228° |
| 2026-05-07 22:04 | 28.77931 | -150.64996 | 40192 ft | 447 kts | 228° |
| 2026-05-07 22:04 | 28.73651 | -150.70136 | 40188 ft | 447 kts | 228° |
| 2026-05-07 22:05 | 28.69366 | -150.75276 | 40188 ft | 447 kts | 228° |
| 2026-05-07 22:05 | 28.65081 | -150.80410 | 40188 ft | 447 kts | 227° |
| 2026-05-07 22:06 | 28.60788 | -150.85548 | 40188 ft | 448 kts | 227° |
| 2026-05-07 22:06 | 28.56483 | -150.90692 | 40188 ft | 448 kts | 227° |
| 2026-05-07 22:07 | 28.52180 | -150.95827 | 40189 ft | 448 kts | 227° |
| 2026-05-07 22:07 | 28.47878 | -151.00956 | 40190 ft | 448 kts | 227° |
| 2026-05-07 22:08 | 28.43566 | -151.06089 | 40190 ft | 449 kts | 227° |
| 2026-05-07 22:08 | 28.39256 | -151.11215 | 40189 ft | 448 kts | 227° |
| 2026-05-07 22:09 | 28.34942 | -151.16337 | 40187 ft | 448 kts | 227° |
| 2026-05-07 22:09 | 28.30630 | -151.21451 | 40187 ft | 448 kts | 227° |
| 2026-05-07 22:10 | 28.26343 | -151.26529 | 40174 ft | 448 kts | 227° |
| 2026-05-07 22:10 | 28.22015 | -151.31650 | 40187 ft | 450 kts | 227° |
| 2026-05-07 22:11 | 28.17678 | -151.36775 | 40186 ft | 450 kts | 227° |
| 2026-05-07 22:11 | 28.13338 | -151.41896 | 40186 ft | 450 kts | 227° |
| 2026-05-07 22:12 | 28.09003 | -151.47005 | 40187 ft | 450 kts | 227° |
| 2026-05-07 22:12 | 28.04663 | -151.52114 | 40187 ft | 450 kts | 227° |
| 2026-05-07 22:13 | 28.00325 | -151.57215 | 40185 ft | 450 kts | 227° |
| 2026-05-07 22:13 | 27.95985 | -151.62311 | 40187 ft | 450 kts | 227° |
| 2026-05-07 22:14 | 27.91643 | -151.67403 | 40185 ft | 450 kts | 227° |
| 2026-05-07 22:14 | 27.87298 | -151.72493 | 40186 ft | 450 kts | 227° |
| 2026-05-07 22:15 | 27.82979 | -151.77546 | 40183 ft | 451 kts | 226° |
| 2026-05-07 22:15 | 27.78616 | -151.82644 | 40185 ft | 451 kts | 226° |
| 2026-05-07 22:16 | 27.74254 | -151.87735 | 40187 ft | 451 kts | 226° |
| 2026-05-07 22:16 | 27.69890 | -151.92822 | 40193 ft | 451 kts | 226° |
| 2026-05-07 22:17 | 27.65527 | -151.97901 | 40185 ft | 450 kts | 226° |
| 2026-05-07 22:17 | 27.61163 | -152.02976 | 40187 ft | 451 kts | 226° |
| 2026-05-07 22:18 | 27.54595 | -152.10601 | 40185 ft | 452 kts | 226° |
| 2026-05-07 22:19 | 27.50211 | -152.15682 | 40185 ft | 452 kts | 226° |
| 2026-05-07 22:19 | 27.45827 | -152.20758 | 40185 ft | 452 kts | 226° |
| 2026-05-07 22:20 | 27.41466 | -152.25802 | 40183 ft | 452 kts | 226° |
| 2026-05-07 22:20 | 27.37073 | -152.30876 | 40182 ft | 452 kts | 226° |
| 2026-05-07 22:21 | 27.32680 | -152.35944 | 40185 ft | 452 kts | 226° |
| 2026-05-07 22:21 | 27.28285 | -152.41008 | 40182 ft | 452 kts | 226° |
| 2026-05-07 22:22 | 27.23887 | -152.46069 | 40183 ft | 452 kts | 226° |
| 2026-05-07 22:22 | 27.19484 | -152.51131 | 40184 ft | 454 kts | 226° |
| 2026-05-07 22:23 | 27.15816 | -152.55343 | 40176 ft | 454 kts | 226° |
| 2026-05-07 22:23 | 27.11400 | -152.60407 | 40186 ft | 454 kts | 226° |
| 2026-05-07 22:24 | 27.06983 | -152.65467 | 40188 ft | 454 kts | 226° |
| 2026-05-07 22:24 | 27.02564 | -152.70523 | 40188 ft | 454 kts | 226° |
| 2026-05-07 22:25 | 26.98142 | -152.75577 | 40180 ft | 455 kts | 225° |
| 2026-05-07 22:25 | 26.93704 | -152.80642 | 40180 ft | 456 kts | 225° |
| 2026-05-07 22:26 | 26.89260 | -152.85709 | 40174 ft | 455 kts | 225° |
| 2026-05-07 22:26 | 26.84849 | -152.90731 | 40182 ft | 455 kts | 225° |
| 2026-05-07 22:27 | 26.80409 | -152.95781 | 40176 ft | 455 kts | 225° |
| 2026-05-07 22:27 | 26.75967 | -153.00829 | 40180 ft | 456 kts | 225° |
| 2026-05-07 22:28 | 26.71508 | -153.05887 | 40180 ft | 456 kts | 225° |
| 2026-05-07 22:28 | 26.67049 | -153.10941 | 40180 ft | 457 kts | 225° |
| 2026-05-07 22:29 | 26.62584 | -153.15995 | 40179 ft | 456 kts | 225° |
| 2026-05-07 22:29 | 26.58124 | -153.21039 | 40180 ft | 456 kts | 225° |
| 2026-05-07 22:30 | 26.53664 | -153.26076 | 40174 ft | 457 kts | 225° |
| 2026-05-07 22:30 | 26.49188 | -153.31125 | 40180 ft | 458 kts | 225° |
| 2026-05-07 22:31 | 26.44705 | -153.36175 | 40180 ft | 458 kts | 225° |
| 2026-05-07 22:31 | 26.40220 | -153.41223 | 40175 ft | 458 kts | 225° |
| 2026-05-07 22:32 | 26.35763 | -153.46232 | 40178 ft | 458 kts | 225° |
| 2026-05-07 22:32 | 26.31277 | -153.51269 | 40176 ft | 458 kts | 225° |
| 2026-05-07 22:33 | 26.26784 | -153.56308 | 40172 ft | 459 kts | 225° |
| 2026-05-07 22:33 | 26.22281 | -153.61351 | 40175 ft | 459 kts | 225° |
| 2026-05-07 22:34 | 26.17781 | -153.66386 | 40174 ft | 459 kts | 225° |
| 2026-05-07 22:34 | 26.13280 | -153.71416 | 40175 ft | 459 kts | 225° |
| 2026-05-07 22:35 | 26.08774 | -153.76446 | 40173 ft | 459 kts | 225° |
| 2026-05-07 22:35 | 26.04260 | -153.81479 | 40174 ft | 460 kts | 225° |
| 2026-05-07 22:36 | 25.99742 | -153.86510 | 40168 ft | 460 kts | 225° |
| 2026-05-07 22:36 | 25.95218 | -153.91543 | 40170 ft | 460 kts | 225° |
| 2026-05-07 22:37 | 25.90727 | -153.96532 | 40174 ft | 460 kts | 225° |
| 2026-05-07 22:37 | 25.86204 | -154.01552 | 40175 ft | 460 kts | 225° |
| 2026-05-07 22:38 | 25.81674 | -154.06574 | 40170 ft | 459 kts | 225° |
| 2026-05-07 22:38 | 25.77150 | -154.11583 | 40170 ft | 459 kts | 225° |
| 2026-05-07 22:39 | 25.72629 | -154.16583 | 40172 ft | 459 kts | 225° |
| 2026-05-07 22:39 | 25.68108 | -154.21578 | 40170 ft | 459 kts | 225° |
| 2026-05-07 22:40 | 25.63608 | -154.26542 | 40168 ft | 460 kts | 225° |
| 2026-05-07 22:40 | 25.59065 | -154.31550 | 40168 ft | 461 kts | 225° |
| 2026-05-07 22:41 | 25.54516 | -154.36559 | 40169 ft | 461 kts | 225° |
| 2026-05-07 22:41 | 25.49967 | -154.41562 | 40169 ft | 461 kts | 225° |
| 2026-05-07 22:42 | 25.45416 | -154.46562 | 40167 ft | 461 kts | 225° |
| 2026-05-07 22:42 | 25.40866 | -154.51554 | 40163 ft | 461 kts | 225° |
| 2026-05-07 22:43 | 25.36306 | -154.56553 | 40165 ft | 462 kts | 225° |
| 2026-05-07 22:43 | 25.31738 | -154.61553 | 40165 ft | 462 kts | 225° |
| 2026-05-07 22:44 | 25.27168 | -154.66551 | 40165 ft | 462 kts | 225° |
| 2026-05-07 22:44 | 25.22595 | -154.71546 | 40164 ft | 462 kts | 225° |
| 2026-05-07 22:45 | 25.18023 | -154.76535 | 40155 ft | 462 kts | 225° |
| 2026-05-07 22:45 | 25.13433 | -154.81538 | 40162 ft | 464 kts | 225° |
| 2026-05-07 22:46 | 25.08865 | -154.86511 | 40161 ft | 464 kts | 225° |
| 2026-05-07 22:46 | 25.04232 | -154.91550 | 40162 ft | 464 kts | 225° |
| 2026-05-07 22:47 | 24.99631 | -154.96547 | 40160 ft | 464 kts | 225° |
| 2026-05-07 22:47 | 24.95059 | -155.01509 | 40149 ft | 464 kts | 225° |
| 2026-05-07 22:48 | 24.90453 | -155.06502 | 40161 ft | 465 kts | 225° |
| 2026-05-07 22:48 | 24.85840 | -155.11496 | 40159 ft | 465 kts | 225° |
| 2026-05-07 22:49 | 24.81221 | -155.16491 | 40158 ft | 465 kts | 225° |
| 2026-05-07 22:49 | 24.76601 | -155.21481 | 40157 ft | 465 kts | 224° |
| 2026-05-07 22:50 | 24.72107 | -155.26602 | 40158 ft | 465 kts | 232° |
| 2026-05-07 22:50 | 24.68307 | -155.32364 | 40154 ft | 466 kts | 234° |
| 2026-05-07 22:51 | 24.64581 | -155.38200 | 40153 ft | 466 kts | 234° |
| 2026-05-07 22:51 | 24.60861 | -155.44038 | 40151 ft | 466 kts | 234° |
| 2026-05-07 22:52 | 24.57140 | -155.49875 | 40151 ft | 466 kts | 234° |
| 2026-05-07 22:52 | 24.53416 | -155.55711 | 40151 ft | 466 kts | 234° |
| 2026-05-07 22:53 | 24.49693 | -155.61539 | 40154 ft | 466 kts | 234° |
| 2026-05-07 22:53 | 24.45969 | -155.67363 | 40151 ft | 466 kts | 235° |
| 2026-05-07 22:54 | 24.42237 | -155.73191 | 40148 ft | 467 kts | 235° |
| 2026-05-07 22:54 | 24.38501 | -155.79019 | 40152 ft | 467 kts | 234° |
| 2026-05-07 22:55 | 24.34790 | -155.84801 | 40143 ft | 467 kts | 234° |
| 2026-05-07 22:55 | 24.31052 | -155.90619 | 40148 ft | 466 kts | 234° |
| 2026-05-07 22:56 | 24.27312 | -155.96432 | 40142 ft | 466 kts | 235° |
| 2026-05-07 22:56 | 24.23577 | -156.02230 | 40139 ft | 466 kts | 235° |
| 2026-05-07 22:57 | 24.19834 | -156.08035 | 40139 ft | 466 kts | 235° |
| 2026-05-07 22:57 | 24.16093 | -156.13829 | 40141 ft | 466 kts | 235° |
| 2026-05-07 22:58 | 24.12350 | -156.19621 | 40142 ft | 466 kts | 235° |
| 2026-05-07 22:58 | 24.08605 | -156.25409 | 40147 ft | 466 kts | 235° |
| 2026-05-07 22:59 | 24.04442 | -156.30803 | 40147 ft | 466 kts | 220° |
| 2026-05-07 22:59 | 24.01718 | -156.32718 | 40144 ft | 467 kts | 207° |
| 2026-05-07 22:59 | 23.98718 | -156.33993 | 40147 ft | 469 kts | 200° |
| 2026-05-07 23:00 | 23.92473 | -156.36163 | 40141 ft | 472 kts | 199° |
| 2026-05-07 23:00 | 23.86213 | -156.38332 | 40147 ft | 472 kts | 199° |
| 2026-05-07 23:01 | 23.79962 | -156.40512 | 40144 ft | 471 kts | 199° |
| 2026-05-07 23:01 | 23.73710 | -156.42696 | 40132 ft | 472 kts | 200° |
| 2026-05-07 23:02 | 23.67452 | -156.44882 | 40141 ft | 472 kts | 200° |
| 2026-05-07 23:02 | 23.61186 | -156.47069 | 40137 ft | 473 kts | 200° |
| 2026-05-07 23:03 | 23.54922 | -156.49254 | 40141 ft | 473 kts | 200° |
| 2026-05-07 23:03 | 23.48661 | -156.51435 | 40136 ft | 472 kts | 200° |
| 2026-05-07 23:04 | 23.42398 | -156.53615 | 40140 ft | 472 kts | 200° |
| 2026-05-07 23:04 | 23.36134 | -156.55793 | 40147 ft | 473 kts | 200° |
| 2026-05-07 23:05 | 23.29911 | -156.57955 | 40138 ft | 473 kts | 200° |
| 2026-05-07 23:05 | 23.23649 | -156.60128 | 40140 ft | 472 kts | 200° |
| 2026-05-07 23:06 | 23.17387 | -156.62298 | 40131 ft | 472 kts | 200° |
| 2026-05-07 23:06 | 23.11104 | -156.64475 | 40141 ft | 473 kts | 200° |
| 2026-05-07 23:07 | 23.04829 | -156.66646 | 40131 ft | 473 kts | 200° |
| 2026-05-07 23:07 | 22.98553 | -156.68816 | 40132 ft | 473 kts | 200° |
| 2026-05-07 23:08 | 22.92318 | -156.70969 | 40135 ft | 473 kts | 200° |
| 2026-05-07 23:08 | 22.86035 | -156.73136 | 40138 ft | 474 kts | 200° |
| 2026-05-07 23:09 | 22.79646 | -156.74947 | 40133 ft | 478 kts | 192° |
| 2026-05-07 23:09 | 22.73060 | -156.75916 | 39887 ft | 477 kts | 190° |
| 2026-05-07 23:09 | 22.69792 | -156.76373 | 39528 ft | 471 kts | 190° |
| 2026-05-07 23:10 | 22.66538 | -156.76834 | 38905 ft | 472 kts | 190° |
| 2026-05-07 23:10 | 22.63280 | -156.77297 | 38180 ft | 473 kts | 190° |
| 2026-05-07 23:10 | 22.60022 | -156.77762 | 37496 ft | 472 kts | 190° |
| 2026-05-07 23:10 | 22.56721 | -156.78235 | 36830 ft | 484 kts | 190° |
| 2026-05-07 23:11 | 22.53350 | -156.78719 | 36127 ft | 492 kts | 190° |
| 2026-05-07 23:11 | 22.49944 | -156.79205 | 35477 ft | 492 kts | 190° |
| 2026-05-07 23:11 | 22.46567 | -156.79686 | 34942 ft | 487 kts | 189° |
| 2026-05-07 23:11 | 22.43223 | -156.80162 | 34403 ft | 483 kts | 189° |
| 2026-05-07 23:12 | 22.39902 | -156.80635 | 33821 ft | 479 kts | 189° |
| 2026-05-07 23:12 | 22.36612 | -156.81104 | 33258 ft | 475 kts | 189° |
| 2026-05-07 23:12 | 22.34451 | -156.81413 | 32901 ft | 472 kts | 189° |
| 2026-05-07 23:12 | 22.31208 | -156.81875 | 32365 ft | 467 kts | 189° |
| 2026-05-07 23:13 | 22.28001 | -156.82332 | 31848 ft | 463 kts | 189° |
| 2026-05-07 23:13 | 22.24845 | -156.82935 | 31318 ft | 457 kts | 197° |
| 2026-05-07 23:13 | 22.21953 | -156.84266 | 30797 ft | 450 kts | 213° |
| 2026-05-07 23:13 | 22.19373 | -156.86149 | 30279 ft | 446 kts | 217° |
| 2026-05-07 23:14 | 22.16879 | -156.88123 | 29719 ft | 442 kts | 217° |
| 2026-05-07 23:14 | 22.14419 | -156.90080 | 29219 ft | 437 kts | 217° |
| 2026-05-07 23:14 | 22.11981 | -156.92009 | 28730 ft | 432 kts | 217° |
| 2026-05-07 23:14 | 22.09598 | -156.93887 | 28240 ft | 428 kts | 217° |
| 2026-05-07 23:15 | 22.07208 | -156.95767 | 27758 ft | 423 kts | 217° |
| 2026-05-07 23:15 | 22.04837 | -156.97628 | 27270 ft | 420 kts | 217° |
| 2026-05-07 23:15 | 22.02450 | -156.99500 | 26764 ft | 418 kts | 217° |
| 2026-05-07 23:15 | 22.00139 | -157.01311 | 26303 ft | 414 kts | 217° |
| 2026-05-07 23:16 | 21.97819 | -157.03127 | 25818 ft | 411 kts | 217° |
| 2026-05-07 23:16 | 21.95511 | -157.04933 | 25334 ft | 409 kts | 216° |
| 2026-05-07 23:16 | 21.93215 | -157.06729 | 24834 ft | 406 kts | 217° |
| 2026-05-07 23:16 | 21.90934 | -157.08513 | 24347 ft | 404 kts | 217° |
| 2026-05-07 23:17 | 21.88664 | -157.10287 | 23852 ft | 403 kts | 216° |
| 2026-05-07 23:17 | 21.86401 | -157.12054 | 23308 ft | 401 kts | 216° |
| 2026-05-07 23:17 | 21.84157 | -157.13807 | 22783 ft | 397 kts | 216° |
| 2026-05-07 23:17 | 21.81931 | -157.15543 | 22306 ft | 393 kts | 216° |
| 2026-05-07 23:18 | 21.79723 | -157.17266 | 21802 ft | 390 kts | 216° |
| 2026-05-07 23:18 | 21.77537 | -157.18971 | 21573 ft | 388 kts | 216° |
| 2026-05-07 23:18 | 21.75351 | -157.20676 | 21338 ft | 387 kts | 216° |
| 2026-05-07 23:18 | 21.73171 | -157.22375 | 20792 ft | 386 kts | 216° |
| 2026-05-07 23:19 | 21.71050 | -157.24136 | 20223 ft | 385 kts | 220° |
| 2026-05-07 23:19 | 21.69029 | -157.26009 | 19721 ft | 382 kts | 221° |
| 2026-05-07 23:19 | 21.67035 | -157.27873 | 19248 ft | 378 kts | 221° |
| 2026-05-07 23:19 | 21.65050 | -157.29710 | 18764 ft | 375 kts | 221° |
| 2026-05-07 23:20 | 21.63075 | -157.31525 | 18290 ft | 372 kts | 220° |
| 2026-05-07 23:20 | 21.61140 | -157.33294 | 17790 ft | 368 kts | 221° |
| 2026-05-07 23:20 | 21.59203 | -157.35061 | 17327 ft | 363 kts | 220° |
| 2026-05-07 23:20 | 21.57284 | -157.36808 | 16871 ft | 360 kts | 221° |
| 2026-05-07 23:21 | 21.55358 | -157.38560 | 16409 ft | 356 kts | 220° |
| 2026-05-07 23:21 | 21.53476 | -157.40270 | 15956 ft | 353 kts | 221° |
| 2026-05-07 23:21 | 21.51608 | -157.41967 | 15517 ft | 349 kts | 221° |
| 2026-05-07 23:21 | 21.49760 | -157.43645 | 15073 ft | 347 kts | 220° |
| 2026-05-07 23:22 | 21.47946 | -157.45291 | 14649 ft | 345 kts | 220° |
| 2026-05-07 23:22 | 21.46121 | -157.46947 | 14431 ft | 344 kts | 220° |
| 2026-05-07 23:22 | 21.44297 | -157.48600 | 14318 ft | 341 kts | 220° |
| 2026-05-07 23:22 | 21.42509 | -157.50265 | 13959 ft | 340 kts | 224° |
| 2026-05-07 23:23 | 21.41145 | -157.52318 | 13376 ft | 339 kts | 243° |
| 2026-05-07 23:23 | 21.40214 | -157.54621 | 12931 ft | 334 kts | 247° |
| 2026-05-07 23:23 | 21.39354 | -157.56928 | 12544 ft | 333 kts | 248° |
| 2026-05-07 23:23 | 21.38493 | -157.59234 | 12164 ft | 332 kts | 247° |
| 2026-05-07 23:24 | 21.37633 | -157.61518 | 11773 ft | 328 kts | 247° |
| 2026-05-07 23:24 | 21.36777 | -157.63780 | 11389 ft | 326 kts | 247° |
| 2026-05-07 23:24 | 21.35920 | -157.66033 | 11013 ft | 326 kts | 247° |
| 2026-05-07 23:24 | 21.35068 | -157.68273 | 10648 ft | 322 kts | 247° |
| 2026-05-07 23:25 | 21.34223 | -157.70487 | 10262 ft | 319 kts | 247° |
| 2026-05-07 23:25 | 21.33383 | -157.72687 | 9863 ft | 319 kts | 246° |
| 2026-05-07 23:25 | 21.32546 | -157.74877 | 9480 ft | 312 kts | 247° |
| 2026-05-07 23:25 | 21.31744 | -157.76988 | 9289 ft | 299 kts | 247° |
| 2026-05-07 23:26 | 21.30968 | -157.79003 | 9085 ft | 286 kts | 247° |
| 2026-05-07 23:26 | 21.30226 | -157.80934 | 8945 ft | 273 kts | 247° |
| 2026-05-07 23:26 | 21.29513 | -157.82784 | 8777 ft | 264 kts | 247° |
| 2026-05-07 23:26 | 21.28816 | -157.84594 | 8450 ft | 261 kts | 247° |
| 2026-05-07 23:27 | 21.27362 | -157.88148 | 7684 ft | 259 kts | 244° |
| 2026-05-07 23:27 | 21.26565 | -157.89871 | 7397 ft | 256 kts | 243° |
| 2026-05-07 23:27 | 21.25780 | -157.91575 | 7128 ft | 254 kts | 244° |
| 2026-05-07 23:28 | 21.25013 | -157.93256 | 6870 ft | 255 kts | 244° |
| 2026-05-07 23:28 | 21.24255 | -157.94956 | 6675 ft | 248 kts | 246° |
| 2026-05-07 23:28 | 21.23828 | -157.96714 | 6472 ft | 242 kts | 265° |
| 2026-05-07 23:28 | 21.23769 | -157.98513 | 6223 ft | 242 kts | 270° |
| 2026-05-07 23:29 | 21.23779 | -158.00314 | 5987 ft | 241 kts | 271° |
| 2026-05-07 23:29 | 21.23793 | -158.02111 | 5833 ft | 241 kts | 271° |
| 2026-05-07 23:29 | 21.23800 | -158.03909 | 5704 ft | 241 kts | 270° |
| 2026-05-07 23:29 | 21.23804 | -158.05706 | 5585 ft | 241 kts | 271° |
| 2026-05-07 23:30 | 21.23806 | -158.07503 | 5462 ft | 241 kts | 270° |
| 2026-05-07 23:30 | 21.23807 | -158.09299 | 5343 ft | 241 kts | 270° |
| 2026-05-07 23:30 | 21.23808 | -158.11093 | 5223 ft | 241 kts | 270° |
| 2026-05-07 23:30 | 21.23807 | -158.12874 | 5114 ft | 237 kts | 271° |
| 2026-05-07 23:31 | 21.23807 | -158.14652 | 4985 ft | 240 kts | 271° |
| 2026-05-07 23:31 | 21.23806 | -158.16440 | 4866 ft | 240 kts | 271° |
| 2026-05-07 23:31 | 21.23808 | -158.18226 | 4730 ft | 239 kts | 271° |
| 2026-05-07 23:31 | 21.24044 | -158.19983 | 4608 ft | 239 kts | 292° |
| 2026-05-07 23:32 | 21.25017 | -158.21387 | 4518 ft | 236 kts | 325° |
| 2026-05-07 23:32 | 21.26525 | -158.21993 | 4388 ft | 233 kts | 355° |
| 2026-05-07 23:32 | 21.28121 | -158.22055 | 4266 ft | 233 kts | 1° |
| 2026-05-07 23:32 | 21.29735 | -158.21964 | 4153 ft | 232 kts | 9° |
| 2026-05-07 23:33 | 21.31224 | -158.21337 | 4037 ft | 230 kts | 37° |
| 2026-05-07 23:33 | 21.32233 | -158.20034 | 4005 ft | 229 kts | 66° |
| 2026-05-07 23:33 | 21.32596 | -158.18377 | 4009 ft | 228 kts | 86° |
| 2026-05-07 23:33 | 21.32577 | -158.16739 | 4016 ft | 212 kts | 92° |
| 2026-05-07 23:34 | 21.32522 | -158.15193 | 3883 ft | 205 kts | 90° |
| 2026-05-07 23:34 | 21.32516 | -158.13669 | 3630 ft | 203 kts | 88° |
| 2026-05-07 23:34 | 21.32523 | -158.12187 | 3302 ft | 194 kts | 88° |
| 2026-05-07 23:34 | 21.32520 | -158.10778 | 2995 ft | 183 kts | 87° |
| 2026-05-07 23:35 | 21.32519 | -158.09450 | 2753 ft | 173 kts | 85° |
| 2026-05-07 23:35 | 21.32522 | -158.08179 | 2513 ft | 167 kts | 86° |
| 2026-05-07 23:35 | 21.32521 | -158.06958 | 2307 ft | 161 kts | 85° |
| 2026-05-07 23:35 | 21.32521 | -158.05784 | 2099 ft | 154 kts | 86° |
| 2026-05-07 23:36 | 21.32520 | -158.04671 | 1908 ft | 145 kts | 84° |
| 2026-05-07 23:36 | 21.32521 | -158.03615 | 1717 ft | 137 kts | 84° |
| 2026-05-07 23:36 | 21.32520 | -158.02634 | 1530 ft | 126 kts | 84° |
| 2026-05-07 23:36 | 21.32522 | -158.01696 | 1376 ft | 127 kts | 85° |
| 2026-05-07 23:37 | 21.32522 | -158.00746 | 1215 ft | 130 kts | 82° |
| 2026-05-07 23:37 | 21.32528 | -157.99760 | 1030 ft | 133 kts | 90° |
| 2026-05-07 23:37 | 21.32523 | -157.98761 | 862 ft | 133 kts | 87° |
| 2026-05-07 23:37 | 21.32523 | -157.97777 | 690 ft | 131 kts | 88° |
| 2026-05-07 23:38 | 21.32527 | -157.96808 | 512 ft | 129 kts | 90° |
| 2026-05-07 23:38 | 21.32534 | -157.95832 | 325 ft | 131 kts | 88° |
| 2026-05-07 23:38 | 21.32531 | -157.94846 | 173 ft | 135 kts | 87° |
| 2026-05-07 23:38 | 21.32530 | -157.93867 | 47 ft | 128 kts | 86° |
| 2026-05-07 23:39 | 21.32528 | -157.92981 | 32 ft | 110 kts | 88° |
| 2026-05-07 23:39 | 21.32528 | -157.92336 | 31 ft | 50 kts | 90° |
| 2026-05-07 23:39 | 21.32526 | -157.92077 | 30 ft | 24 kts | 91° |
| 2026-05-07 23:39 | 21.32589 | -157.91951 | 30 ft | 6 kts | 27° |
| 2026-05-07 23:40 | 21.32614 | -157.91937 | 30 ft | 6 kts | 25° |
| 2026-05-07 23:40 | 21.32680 | -157.91904 | 30 ft | 13 kts | 25° |
| 2026-05-07 23:40 | 21.32720 | -157.91906 | 30 ft | 5 kts | 333° |
| 2026-05-07 23:40 | 21.32771 | -157.91928 | 30 ft | 12 kts | 354° |
| 2026-05-07 23:41 | 21.32867 | -157.91914 | 30 ft | 15 kts | 10° |
| 2026-05-07 23:41 | 21.32975 | -157.91893 | 30 ft | 13 kts | 8° |
| 2026-05-07 23:41 | 21.32995 | -157.91890 | 30 ft | 1 kts | 10° |
| 2026-05-07 23:41 | 21.33003 | -157.91861 | 30 ft | 9 kts | 97° |
| 2026-05-07 23:42 | 21.32914 | -157.91837 | 30 ft | 21 kts | 187° |
| 2026-05-07 23:42 | 21.32779 | -157.91886 | 30 ft | 18 kts | 234° |
| 2026-05-07 23:42 | 21.32776 | -157.91991 | 30 ft | 15 kts | 275° |
| 2026-05-07 23:42 | 21.32776 | -157.92103 | 30 ft | 16 kts | 270° |
| 2026-05-07 23:43 | 21.32783 | -157.92225 | 30 ft | 11 kts | 294° |
| 2026-05-07 23:43 | 21.32826 | -157.92240 | 30 ft | 7 kts | 358° |
| 2026-05-07 23:43 | 21.32893 | -157.92233 | 30 ft | 12 kts | 8° |
| 2026-05-07 23:43 | 21.32988 | -157.92215 | 30 ft | 15 kts | 8° |
| 2026-05-07 23:44 | 21.33068 | -157.92205 | 30 ft | 0 kts | 349° |
| 2026-05-07 23:44 | 21.33078 | -157.92217 | 30 ft | 5 kts | 304° |
| 2026-05-07 23:44 | 21.33082 | -157.92255 | 30 ft | 0 kts | 278° |
| 2026-05-07 23:44 | 21.33083 | -157.92266 | 30 ft | 1 kts | 278° |
| 2026-05-07 23:45 | 21.33084 | -157.92269 | 30 ft | 0 kts | 278° |